Observation data for Palo Duro Canyon State Park Floor on 08/11/2019      Previous  Date  Next       Current Mesonet Observations  Soil Data  Daily Summary Page  Observations in Plain Language
KPD2 110500Z 13008KT 31/15 A2998 RMK A01 T03120148  RH  037%=      5-min Rain = 0
KPD2 110501Z 13007KT 31/15 A2998 RMK A01 T03130149  RH  037%=      5-min Rain = 0
KPD2 110502Z 14008KT 31/15 A2998 RMK A01 T03130149  RH  037%=      5-min Rain = 0
KPD2 110503Z 13011KT 31/15 A2998 RMK A01 T03130150  RH  037%=      5-min Rain = 0
KPD2 110504Z 13009KT 31/15 A2998 RMK A01 T03140150  RH  037%=      5-min Rain = 0
KPD2 110505Z 14010KT 32/15 A2998 RMK A01 T03150151  RH  037%=      5-min Rain = 0
KPD2 110506Z 13009KT 32/15 A2998 RMK A01 T03150151  RH  037%=      5-min Rain = 0
KPD2 110507Z 13008KT 32/15 A2998 RMK A01 T03160151  RH  037%=      5-min Rain = 0
KPD2 110508Z 13009KT 32/15 A2998 RMK A01 T03150151  RH  037%=      5-min Rain = 0
KPD2 110509Z 14010KT 32/15 A2998 RMK A01 T03150151  RH  037%=      5-min Rain = 0
KPD2 110510Z 13009KT 31/15 A2998 RMK A01 T03140151  RH  037%=      5-min Rain = 0
KPD2 110511Z 13008KT 32/15 A2998 RMK A01 T03150151  RH  037%=      5-min Rain = 0
KPD2 110512Z 13008KT 32/15 A2998 RMK A01 T03150151  RH  037%=      5-min Rain = 0
KPD2 110513Z 13009KT 31/15 A2998 RMK A01 T03140151  RH  037%=      5-min Rain = 0
KPD2 110514Z 14008KT 31/15 A2998 RMK A01 T03140151  RH  037%=      5-min Rain = 0
KPD2 110515Z 13009KT 31/15 A2998 RMK A01 T03140151  RH  037%=      5-min Rain = 0
KPD2 110516Z 13009KT 31/15 A2998 RMK A01 T03130151  RH  037%=      5-min Rain = 0
KPD2 110517Z 14007KT 31/15 A2998 RMK A01 T03130151  RH  037%=      5-min Rain = 0
KPD2 110518Z 13009KT 31/15 A2998 RMK A01 T03130151  RH  038%=      5-min Rain = 0
KPD2 110519Z 13009KT 31/15 A2998 RMK A01 T03120152  RH  038%=      5-min Rain = 0
KPD2 110520Z 14008KT 31/15 A2998 RMK A01 T03110152  RH  038%=      5-min Rain = 0
KPD2 110521Z 14008KT 31/15 A2998 RMK A01 T03110153  RH  038%=      5-min Rain = 0
KPD2 110522Z 13008KT 31/15 A2998 RMK A01 T03110153  RH  038%=      5-min Rain = 0
KPD2 110523Z 14007KT 31/15 A2998 RMK A01 T03110153  RH  038%=      5-min Rain = 0
KPD2 110524Z 14008KT 31/15 A2998 RMK A01 T03110153  RH  038%=      5-min Rain = 0
KPD2 110525Z 13007KT 31/15 A2998 RMK A01 T03110153  RH  038%=      5-min Rain = 0
KPD2 110526Z 13007KT 31/15 A2998 RMK A01 T03100152  RH  038%=      5-min Rain = 0
KPD2 110527Z 14008KT 31/15 A2998 RMK A01 T03100153  RH  038%=      5-min Rain = 0
KPD2 110528Z 12008KT 31/15 A2998 RMK A01 T03100153  RH  039%=      5-min Rain = 0
KPD2 110529Z 14008KT 31/15 A2998 RMK A01 T03100153  RH  039%=      5-min Rain = 0
KPD2 110530Z 13008KT 31/15 A2998 RMK A01 T03100153  RH  039%=      5-min Rain = 0
KPD2 110531Z 12010KT 31/15 A2998 RMK A01 T03100153  RH  039%=      5-min Rain = 0
KPD2 110532Z 13010KT 31/15 A2998 RMK A01 T03100153  RH  039%=      5-min Rain = 0
KPD2 110533Z 13009G14KT 31/15 A2998 RMK A01 T03100153  RH  039%=      5-min Rain = 0
KPD2 110534Z 13008KT 31/15 A2998 RMK A01 T03100153  RH  039%=      5-min Rain = 0
KPD2 110535Z 12008KT 31/15 A2998 RMK A01 T03100153  RH  039%=      5-min Rain = 0
KPD2 110536Z 13007KT 31/15 A2998 RMK A01 T03100154  RH  039%=      5-min Rain = 0
KPD2 110537Z 13006KT 31/15 A2998 RMK A01 T03100154  RH  039%=      5-min Rain = 0
KPD2 110538Z 12006KT 31/15 A2998 RMK A01 T03090154  RH  039%=      5-min Rain = 0
KPD2 110539Z 14008KT 31/15 A2998 RMK A01 T03080154  RH  039%=      5-min Rain = 0
KPD2 110540Z 12006KT 31/15 A2998 RMK A01 T03080154  RH  039%=      5-min Rain = 0
KPD2 110541Z 12007KT 31/15 A2998 RMK A01 T03080154  RH  039%=      5-min Rain = 0
KPD2 110542Z 13008KT 31/15 A2998 RMK A01 T03080154  RH  040%=      5-min Rain = 0
KPD2 110543Z 12005KT 31/16 A2998 RMK A01 T03070155  RH  040%=      5-min Rain = 0
KPD2 110544Z 13007KT 31/16 A2998 RMK A01 T03060155  RH  040%=      5-min Rain = 0
KPD2 110545Z 13007KT 31/16 A2998 RMK A01 T03060155  RH  040%=      5-min Rain = 0
KPD2 110546Z 13007KT 31/15 A2998 RMK A01 T03050154  RH  040%=      5-min Rain = 0
KPD2 110547Z 13009KT 31/16 A2998 RMK A01 T03060155  RH  040%=      5-min Rain = 0
KPD2 110548Z 12008KT 31/16 A2998 RMK A01 T03050155  RH  040%=      5-min Rain = 0
KPD2 110549Z 13009KT 31/16 A2998 RMK A01 T03060155  RH  040%=      5-min Rain = 0
KPD2 110550Z 12008KT 31/16 A2998 RMK A01 T03060155  RH  040%=      5-min Rain = 0
KPD2 110551Z 12007KT 31/16 A2998 RMK A01 T03060156  RH  040%=      5-min Rain = 0
KPD2 110552Z 13008KT 31/16 A2998 RMK A01 T03060156  RH  040%=      5-min Rain = 0
KPD2 110553Z 12007KT 31/16 A2998 RMK A01 T03060156  RH  040%=      5-min Rain = 0
KPD2 110554Z 12005G10KT 31/16 A2998 RMK A01 T03060156  RH  040%=      5-min Rain = 0
KPD2 110555Z 12007KT 31/16 A2998 RMK A01 T03050156  RH  041%=      5-min Rain = 0
KPD2 110556Z 12007KT 30/16 A2998 RMK A01 T03040157  RH  041%=      5-min Rain = 0
KPD2 110557Z 12007KT 30/16 A2998 RMK A01 T03030156  RH  041%=      5-min Rain = 0
KPD2 110558Z 12006KT 30/16 A2998 RMK A01 T03030157  RH  041%=      5-min Rain = 0
KPD2 110559Z 12006KT 30/16 A2998 RMK A01 T03020157  RH  041%=      5-min Rain = 0
KPD2 110600Z 12007G13KT 30/16 A2998 RMK A01 T03020157  RH  041%=      5-min Rain = 0
KPD2 110601Z 14011KT 30/16 A2998 RMK A01 T03020157  RH  041%=      5-min Rain = 0
KPD2 110602Z 13008KT 30/16 A2998 RMK A01 T03030156  RH  041%=      5-min Rain = 0
KPD2 110603Z 13008KT 30/16 A2998 RMK A01 T03040156  RH  041%=      5-min Rain = 0
KPD2 110604Z 12006KT 31/16 A2998 RMK A01 T03050157  RH  041%=      5-min Rain = 0
KPD2 110605Z 12008KT 30/16 A2998 RMK A01 T03040157  RH  041%=      5-min Rain = 0
KPD2 110606Z 13006KT 30/16 A2998 RMK A01 T03040158  RH  041%=      5-min Rain = 0
KPD2 110607Z 13006KT 30/16 A2998 RMK A01 T03040157  RH  041%=      5-min Rain = 0
KPD2 110608Z 13007KT 30/16 A2998 RMK A01 T03040157  RH  041%=      5-min Rain = 0
KPD2 110609Z 13007KT 30/16 A2998 RMK A01 T03040157  RH  041%=      5-min Rain = 0
KPD2 110610Z 13008KT 30/16 A2998 RMK A01 T03040157  RH  041%=      5-min Rain = 0
KPD2 110611Z 12008KT 30/16 A2998 RMK A01 T03040157  RH  041%=      5-min Rain = 0
KPD2 110612Z 13008KT 30/16 A2998 RMK A01 T03040157  RH  041%=      5-min Rain = 0
KPD2 110613Z 12008KT 30/16 A2998 RMK A01 T03040157  RH  041%=      5-min Rain = 0
KPD2 110614Z 12007KT 30/16 A2998 RMK A01 T03040158  RH  041%=      5-min Rain = 0
KPD2 110615Z 13007KT 30/16 A2998 RMK A01 T03040158  RH  041%=      5-min Rain = 0
KPD2 110616Z 13007KT 30/16 A2998 RMK A01 T03040157  RH  041%=      5-min Rain = 0
KPD2 110617Z 13007KT 30/16 A2998 RMK A01 T03040158  RH  041%=      5-min Rain = 0
KPD2 110618Z 13007KT 30/16 A2998 RMK A01 T03030158  RH  041%=      5-min Rain = 0
KPD2 110619Z 13009KT 30/16 A2998 RMK A01 T03030158  RH  042%=      5-min Rain = 0
KPD2 110620Z 13007KT 30/16 A2998 RMK A01 T03030158  RH  042%=      5-min Rain = 0
KPD2 110621Z 14007KT 30/16 A2998 RMK A01 T03030158  RH  042%=      5-min Rain = 0
KPD2 110622Z 13007KT 30/16 A2998 RMK A01 T03020158  RH  042%=      5-min Rain = 0
KPD2 110623Z 14007KT 30/16 A2998 RMK A01 T03020158  RH  042%=      5-min Rain = 0
KPD2 110624Z 14007KT 30/16 A2998 RMK A01 T03030158  RH  042%=      5-min Rain = 0
KPD2 110625Z 12008KT 30/16 A2998 RMK A01 T03030158  RH  042%=      5-min Rain = 0
KPD2 110626Z 13008KT 30/16 A2998 RMK A01 T03030158  RH  042%=      5-min Rain = 0
KPD2 110627Z 13007KT 30/16 A2998 RMK A01 T03030158  RH  042%=      5-min Rain = 0
KPD2 110628Z 12005KT 30/16 A2998 RMK A01 T03030158  RH  042%=      5-min Rain = 0
KPD2 110629Z 12007KT 30/16 A2998 RMK A01 T03030159  RH  042%=      5-min Rain = 0
KPD2 110630Z 12008KT 30/16 A2998 RMK A01 T03030159  RH  042%=      5-min Rain = 0
KPD2 110631Z 13005KT 30/16 A2998 RMK A01 T03020159  RH  042%=      5-min Rain = 0
KPD2 110632Z 13005KT 30/16 A2998 RMK A01 T03020159  RH  042%=      5-min Rain = 0
KPD2 110633Z 12004KT 30/16 A2998 RMK A01 T03010160  RH  042%=      5-min Rain = 0
KPD2 110634Z 11007KT 30/16 A2998 RMK A01 T03010159  RH  042%=      5-min Rain = 0
KPD2 110635Z 12007KT 30/16 A2998 RMK A01 T03000159  RH  042%=      5-min Rain = 0
KPD2 110636Z 12009KT 30/16 A2998 RMK A01 T03000159  RH  043%=      5-min Rain = 0
KPD2 110637Z 12007KT 30/16 A2998 RMK A01 T03010160  RH  043%=      5-min Rain = 0
KPD2 110638Z 12008KT 30/16 A2998 RMK A01 T03000160  RH  043%=      5-min Rain = 0
KPD2 110639Z 11005KT 30/16 A2998 RMK A01 T03000160  RH  043%=      5-min Rain = 0
KPD2 110640Z 12006KT 30/16 A2998 RMK A01 T03000159  RH  043%=      5-min Rain = 0
KPD2 110641Z 13007KT 30/16 A2998 RMK A01 T03000160  RH  043%=      5-min Rain = 0
KPD2 110642Z 12007KT 30/16 A2998 RMK A01 T03000160  RH  043%=      5-min Rain = 0
KPD2 110643Z 12005KT 30/16 A2998 RMK A01 T03000160  RH  043%=      5-min Rain = 0
KPD2 110644Z 12007KT 30/16 A2998 RMK A01 T03000160  RH  043%=      5-min Rain = 0
KPD2 110645Z 12007KT 30/16 A2998 RMK A01 T02990160  RH  043%=      5-min Rain = 0
KPD2 110646Z 12007KT 30/16 A2998 RMK A01 T02990161  RH  043%=      5-min Rain = 0
KPD2 110647Z 12006KT 30/16 A2998 RMK A01 T02990160  RH  043%=      5-min Rain = 0
KPD2 110648Z 11008KT 30/16 A2998 RMK A01 T02980160  RH  043%=      5-min Rain = 0
KPD2 110649Z 12009KT 30/16 A2998 RMK A01 T02980161  RH  043%=      5-min Rain = 0
KPD2 110650Z 11006KT 30/16 A2998 RMK A01 T02980160  RH  043%=      5-min Rain = 0
KPD2 110651Z 12005KT 30/16 A2998 RMK A01 T02980160  RH  043%=      5-min Rain = 0
KPD2 110652Z 11005KT 30/16 A2998 RMK A01 T02980161  RH  043%=      5-min Rain = 0
KPD2 110653Z 11008KT 30/16 A2998 RMK A01 T02980161  RH  044%=      5-min Rain = 0
KPD2 110654Z 11008KT 30/16 A2998 RMK A01 T02970160  RH  043%=      5-min Rain = 0
KPD2 110655Z 11006KT 30/16 A2998 RMK A01 T02970159  RH  043%=      5-min Rain = 0
KPD2 110656Z 10008KT 30/16 A2998 RMK A01 T02970160  RH  043%=      5-min Rain = 0
KPD2 110657Z 12006KT 30/16 A2998 RMK A01 T02980160  RH  043%=      5-min Rain = 0
KPD2 110658Z 11006KT 30/16 A2998 RMK A01 T02980159  RH  043%=      5-min Rain = 0
KPD2 110659Z 11006KT 30/16 A2998 RMK A01 T02980160  RH  043%=      5-min Rain = 0
KPD2 110700Z 12007KT 30/16 A2998 RMK A01 T02990160  RH  043%=      5-min Rain = 0
KPD2 110701Z 11006KT 30/16 A2997 RMK A01 T02990159  RH  043%=      5-min Rain = 0
KPD2 110702Z 13009KT 30/16 A2997 RMK A01 T02990159  RH  043%=      5-min Rain = 0
KPD2 110703Z 12005KT 30/16 A2997 RMK A01 T02990159  RH  043%=      5-min Rain = 0
KPD2 110704Z 12007KT 30/16 A2997 RMK A01 T03000160  RH  043%=      5-min Rain = 0
KPD2 110705Z 12006G11KT 30/16 A2997 RMK A01 T03000160  RH  043%=      5-min Rain = 0
KPD2 110706Z 12006KT 30/16 A2997 RMK A01 T03000160  RH  043%=      5-min Rain = 0
KPD2 110707Z 11005KT 30/16 A2997 RMK A01 T02990160  RH  043%=      5-min Rain = 0
KPD2 110708Z 11005KT 30/16 A2997 RMK A01 T02990160  RH  043%=      5-min Rain = 0
KPD2 110709Z 12005KT 30/16 A2997 RMK A01 T02990160  RH  043%=      5-min Rain = 0
KPD2 110710Z 13006G12KT 30/16 A2997 RMK A01 T02990160  RH  043%=      5-min Rain = 0
KPD2 110711Z 12006KT 30/16 A2997 RMK A01 T02980159  RH  043%=      5-min Rain = 0
KPD2 110712Z 12006KT 30/16 A2997 RMK A01 T02980160  RH  043%=      5-min Rain = 0
KPD2 110713Z 12005KT 30/16 A2997 RMK A01 T02980160  RH  043%=      5-min Rain = 0
KPD2 110714Z 11005KT 30/16 A2997 RMK A01 T02980159  RH  043%=      5-min Rain = 0
KPD2 110715Z 11007G12KT 30/16 A2997 RMK A01 T02980159  RH  043%=      5-min Rain = 0
KPD2 110716Z 10005KT 30/16 A2997 RMK A01 T02990159  RH  043%=      5-min Rain = 0
KPD2 110717Z 11007KT 30/16 A2997 RMK A01 T02980159  RH  043%=      5-min Rain = 0
KPD2 110718Z 10007KT 30/16 A2997 RMK A01 T02980159  RH  043%=      5-min Rain = 0
KPD2 110719Z 10008KT 30/16 A2997 RMK A01 T02990159  RH  043%=      5-min Rain = 0
KPD2 110720Z 12008KT 30/16 A2997 RMK A01 T02990159  RH  043%=      5-min Rain = 0
KPD2 110721Z 13005KT 30/16 A2997 RMK A01 T02990159  RH  043%=      5-min Rain = 0
KPD2 110722Z 11006KT 30/16 A2997 RMK A01 T02990159  RH  043%=      5-min Rain = 0
KPD2 110723Z 11007KT 30/16 A2997 RMK A01 T02990159  RH  043%=      5-min Rain = 0
KPD2 110724Z 10009KT 30/16 A2997 RMK A01 T02990159  RH  043%=      5-min Rain = 0
KPD2 110725Z 12007KT 30/16 A2997 RMK A01 T02990159  RH  043%=      5-min Rain = 0
KPD2 110726Z 12005KT 30/16 A2997 RMK A01 T02990159  RH  043%=      5-min Rain = 0
KPD2 110727Z 11006KT 30/16 A2997 RMK A01 T02990159  RH  043%=      5-min Rain = 0
KPD2 110728Z 10009KT 30/16 A2997 RMK A01 T02990159  RH  043%=      5-min Rain = 0
KPD2 110729Z 11007KT 30/16 A2997 RMK A01 T02990160  RH  043%=      5-min Rain = 0
KPD2 110730Z 11006KT 30/16 A2997 RMK A01 T02980160  RH  043%=      5-min Rain = 0
KPD2 110731Z 10005KT 30/16 A2997 RMK A01 T02980159  RH  043%=      5-min Rain = 0
KPD2 110732Z 12004KT 30/16 A2997 RMK A01 T02980159  RH  043%=      5-min Rain = 0
KPD2 110733Z 12005KT 30/16 A2997 RMK A01 T02980160  RH  043%=      5-min Rain = 0
KPD2 110734Z 13005KT 30/16 A2997 RMK A01 T02970160  RH  043%=      5-min Rain = 0
KPD2 110735Z 12005KT 30/16 A2997 RMK A01 T02970159  RH  043%=      5-min Rain = 0
KPD2 110736Z 09004KT 30/16 A2997 RMK A01 T02960159  RH  044%=      5-min Rain = 0
KPD2 110737Z 09005KT 30/16 A2997 RMK A01 T02960159  RH  044%=      5-min Rain = 0
KPD2 110738Z 11006KT 30/16 A2997 RMK A01 T02960159  RH  044%=      5-min Rain = 0
KPD2 110739Z 11004KT 30/16 A2997 RMK A01 T02960159  RH  044%=      5-min Rain = 0
KPD2 110740Z 13004KT 30/16 A2997 RMK A01 T02950159  RH  044%=      5-min Rain = 0
KPD2 110741Z 12005KT 30/16 A2997 RMK A01 T02950159  RH  044%=      5-min Rain = 0
KPD2 110742Z 13004KT 30/16 A2997 RMK A01 T02950159  RH  044%=      5-min Rain = 0
KPD2 110743Z 14002KT 30/16 A2997 RMK A01 T02950160  RH  044%=      5-min Rain = 0
KPD2 110744Z 12002KT 29/16 A2997 RMK A01 T02940160  RH  044%=      5-min Rain = 0
KPD2 110745Z 12004KT 29/16 A2997 RMK A01 T02940159  RH  044%=      5-min Rain = 0
KPD2 110746Z 13004KT 29/16 A2997 RMK A01 T02930159  RH  044%=      5-min Rain = 0
KPD2 110747Z 15004KT 29/16 A2998 RMK A01 T02930159  RH  044%=      5-min Rain = 0
KPD2 110748Z 16003KT 29/16 A2998 RMK A01 T02930158  RH  044%=      5-min Rain = 0
KPD2 110749Z 20003KT 29/16 A2998 RMK A01 T02930158  RH  044%=      5-min Rain = 0
KPD2 110750Z 22005KT 29/16 A2998 RMK A01 T02940159  RH  044%=      5-min Rain = 0
KPD2 110751Z 21004G9KT 29/16 A2998 RMK A01 T02940159  RH  044%=      5-min Rain = 0
KPD2 110752Z 20008KT 29/16 A2998 RMK A01 T02930159  RH  044%=      5-min Rain = 0
KPD2 110753Z 22004KT 29/16 A2998 RMK A01 T02930158  RH  044%=      5-min Rain = 0
KPD2 110754Z 25004KT 29/16 A2998 RMK A01 T02940158  RH  044%=      5-min Rain = 0
KPD2 110755Z 22006KT 29/16 A2998 RMK A01 T02940159  RH  044%=      5-min Rain = 0
KPD2 110756Z 25004KT 29/16 A2999 RMK A01 T02930159  RH  044%=      5-min Rain = 0
KPD2 110757Z 27005KT 29/16 A2999 RMK A01 T02910159  RH  045%=      5-min Rain = 0
KPD2 110758Z 29004KT 29/16 A2999 RMK A01 T02890159  RH  045%=      5-min Rain = 0
KPD2 110759Z 21002KT 29/16 A2999 RMK A01 T02880159  RH  046%=      5-min Rain = 0
KPD2 110800Z 18003KT 29/16 A2999 RMK A01 T02870159  RH  046%=      5-min Rain = 0
KPD2 110801Z 14002KT 29/16 A2999 RMK A01 T02860159  RH  046%=      5-min Rain = 0
KPD2 110802Z 12001KT 29/16 A2998 RMK A01 T02860159  RH  046%=      5-min Rain = 0
KPD2 110803Z 19001KT 29/16 A2998 RMK A01 T02850159  RH  046%=      5-min Rain = 0
KPD2 110804Z 03002KT 28/16 A2998 RMK A01 T02840159  RH  047%=      5-min Rain = 0
KPD2 110805Z 03004KT 28/16 A2998 RMK A01 T02830159  RH  047%=      5-min Rain = 0
KPD2 110806Z 06003KT 28/16 A2998 RMK A01 T02820159  RH  047%=      5-min Rain = 0
KPD2 110807Z 07004KT 28/16 A2998 RMK A01 T02810159  RH  047%=      5-min Rain = 0
KPD2 110808Z 08004KT 28/16 A2998 RMK A01 T02800160  RH  048%=      5-min Rain = 0
KPD2 110809Z 09002KT 28/16 A2998 RMK A01 T02800160  RH  048%=      5-min Rain = 0
KPD2 110810Z 08003KT 28/16 A2998 RMK A01 T02800161  RH  048%=      5-min Rain = 0
KPD2 110811Z 11004KT 28/16 A2998 RMK A01 T02780161  RH  049%=      5-min Rain = 0
KPD2 110812Z 10003KT 28/16 A2998 RMK A01 T02770160  RH  049%=      5-min Rain = 0
KPD2 110813Z 10002KT 28/16 A2998 RMK A01 T02780159  RH  048%=      5-min Rain = 0
KPD2 110814Z 06002KT 28/16 A2998 RMK A01 T02780159  RH  048%=      5-min Rain = 0
KPD2 110815Z 02002KT 28/16 A2998 RMK A01 T02780159  RH  048%=      5-min Rain = 0
KPD2 110816Z 36003KT 28/16 A2998 RMK A01 T02790160  RH  048%=      5-min Rain = 0
KPD2 110817Z 01004KT 28/16 A2998 RMK A01 T02800162  RH  049%=      5-min Rain = 0
KPD2 110818Z 06003KT 28/16 A2998 RMK A01 T02800162  RH  049%=      5-min Rain = 0
KPD2 110819Z 07004KT 28/16 A2998 RMK A01 T02790161  RH  049%=      5-min Rain = 0
KPD2 110820Z 09002KT 28/16 A2998 RMK A01 T02790161  RH  048%=      5-min Rain = 0
KPD2 110821Z 10003KT 28/16 A2998 RMK A01 T02790160  RH  049%=      5-min Rain = 0
KPD2 110822Z 10002KT 28/16 A2998 RMK A01 T02790161  RH  049%=      5-min Rain = 0
KPD2 110823Z 07003KT 28/16 A2998 RMK A01 T02790161  RH  049%=      5-min Rain = 0
KPD2 110824Z 11002KT 28/16 A2998 RMK A01 T02790160  RH  048%=      5-min Rain = 0
KPD2 110825Z 13004KT 28/16 A2998 RMK A01 T02800161  RH  048%=      5-min Rain = 0
KPD2 110826Z 15005KT 28/16 A2998 RMK A01 T02800161  RH  048%=      5-min Rain = 0
KPD2 110827Z 15004KT 28/16 A2998 RMK A01 T02800161  RH  048%=      5-min Rain = 0
KPD2 110828Z 12003KT 28/16 A2998 RMK A01 T02810161  RH  048%=      5-min Rain = 0
KPD2 110829Z 10003KT 28/16 A2998 RMK A01 T02810162  RH  048%=      5-min Rain = 0
KPD2 110830Z 10003KT 28/16 A2997 RMK A01 T02810162  RH  048%=      5-min Rain = 0
KPD2 110831Z 12002KT 28/16 A2998 RMK A01 T02810162  RH  048%=      5-min Rain = 0
KPD2 110832Z 12003KT 28/16 A2998 RMK A01 T02800162  RH  049%=      5-min Rain = 0
KPD2 110833Z 12004KT 28/16 A2998 RMK A01 T02790162  RH  049%=      5-min Rain = 0
KPD2 110834Z 13002KT 28/16 A2998 RMK A01 T02790162  RH  049%=      5-min Rain = 0
KPD2 110835Z 11004KT 28/16 A2998 RMK A01 T02780162  RH  049%=      5-min Rain = 0
KPD2 110836Z 10005KT 28/16 A2997 RMK A01 T02780162  RH  049%=      5-min Rain = 0
KPD2 110837Z 10004KT 28/16 A2997 RMK A01 T02770162  RH  049%=      5-min Rain = 0
KPD2 110838Z 11004KT 28/16 A2997 RMK A01 T02770162  RH  049%=      5-min Rain = 0
KPD2 110839Z 11004KT 28/16 A2997 RMK A01 T02780161  RH  049%=      5-min Rain = 0
KPD2 110840Z 10005KT 28/16 A2997 RMK A01 T02790161  RH  049%=      5-min Rain = 0
KPD2 110841Z 11005KT 28/16 A2997 RMK A01 T02790162  RH  049%=      5-min Rain = 0
KPD2 110842Z 13004KT 28/16 A2997 RMK A01 T02800161  RH  049%=      5-min Rain = 0
KPD2 110843Z 13003KT 28/16 A2997 RMK A01 T02800161  RH  048%=      5-min Rain = 0
KPD2 110844Z 13004KT 28/16 A2997 RMK A01 T02800161  RH  048%=      5-min Rain = 0
KPD2 110845Z 12006KT 28/16 A2997 RMK A01 T02800162  RH  049%=      5-min Rain = 0
KPD2 110846Z 12005KT 28/16 A2997 RMK A01 T02790162  RH  049%=      5-min Rain = 0
KPD2 110847Z 14005KT 28/16 A2997 RMK A01 T02790162  RH  049%=      5-min Rain = 0
KPD2 110848Z 14003KT 28/16 A2997 RMK A01 T02790162  RH  049%=      5-min Rain = 0
KPD2 110849Z 14003KT 28/16 A2997 RMK A01 T02790162  RH  049%=      5-min Rain = 0
KPD2 110850Z 14003KT 28/16 A2997 RMK A01 T02780162  RH  049%=      5-min Rain = 0
KPD2 110851Z 13003KT 28/16 A2997 RMK A01 T02780162  RH  049%=      5-min Rain = 0
KPD2 110852Z 11003KT 28/16 A2997 RMK A01 T02770162  RH  049%=      5-min Rain = 0
KPD2 110853Z 12003KT 28/16 A2997 RMK A01 T02770162  RH  050%=      5-min Rain = 0
KPD2 110854Z 13004KT 28/16 A2997 RMK A01 T02760162  RH  050%=      5-min Rain = 0
KPD2 110855Z 12003KT 28/16 A2997 RMK A01 T02750162  RH  050%=      5-min Rain = 0
KPD2 110856Z 12003KT 28/16 A2997 RMK A01 T02750163  RH  050%=      5-min Rain = 0
KPD2 110857Z 12004KT 27/16 A2997 RMK A01 T02740162  RH  050%=      5-min Rain = 0
KPD2 110858Z 12003KT 27/16 A2997 RMK A01 T02730162  RH  051%=      5-min Rain = 0
KPD2 110859Z 12004KT 27/16 A2997 RMK A01 T02720162  RH  051%=      5-min Rain = 0
KPD2 110900Z 12003KT 27/16 A2997 RMK A01 T02720162  RH  051%=      5-min Rain = 0
KPD2 110901Z 10003KT 27/16 A2997 RMK A01 T02710162  RH  051%=      5-min Rain = 0
KPD2 110902Z 11003KT 27/16 A2997 RMK A01 T02710162  RH  051%=      5-min Rain = 0
KPD2 110903Z 12003KT 27/16 A2997 RMK A01 T02710162  RH  051%=      5-min Rain = 0
KPD2 110904Z 12004KT 27/16 A2997 RMK A01 T02700162  RH  051%=      5-min Rain = 0
KPD2 110905Z 11004KT 27/16 A2997 RMK A01 T02700162  RH  051%=      5-min Rain = 0
KPD2 110906Z 14004KT 27/16 A2997 RMK A01 T02700162  RH  051%=      5-min Rain = 0
KPD2 110907Z 11005KT 27/16 A2997 RMK A01 T02700161  RH  051%=      5-min Rain = 0
KPD2 110908Z 13004KT 27/16 A2997 RMK A01 T02700161  RH  051%=      5-min Rain = 0
KPD2 110909Z 12005KT 27/16 A2997 RMK A01 T02710161  RH  051%=      5-min Rain = 0
KPD2 110910Z 12003KT 27/16 A2997 RMK A01 T02710161  RH  051%=      5-min Rain = 0
KPD2 110911Z 13003KT 27/16 A2997 RMK A01 T02710161  RH  051%=      5-min Rain = 0
KPD2 110912Z 17004KT 27/16 A2997 RMK A01 T02720161  RH  051%=      5-min Rain = 0
KPD2 110913Z 15004KT 27/16 A2997 RMK A01 T02740161  RH  050%=      5-min Rain = 0
KPD2 110914Z 12003KT 28/16 A2997 RMK A01 T02760161  RH  049%=      5-min Rain = 0
KPD2 110915Z 11003KT 28/16 A2997 RMK A01 T02760161  RH  049%=      5-min Rain = 0
KPD2 110916Z 15003KT 28/16 A2997 RMK A01 T02760162  RH  050%=      5-min Rain = 0
KPD2 110917Z 12003KT 28/16 A2997 RMK A01 T02760162  RH  050%=      5-min Rain = 0
KPD2 110918Z 12003KT 28/16 A2997 RMK A01 T02750162  RH  050%=      5-min Rain = 0
KPD2 110919Z 12003KT 28/16 A2997 RMK A01 T02760162  RH  050%=      5-min Rain = 0
KPD2 110920Z 12003KT 28/16 A2997 RMK A01 T02750163  RH  050%=      5-min Rain = 0
KPD2 110921Z 12004KT 28/16 A2997 RMK A01 T02750163  RH  050%=      5-min Rain = 0
KPD2 110922Z 12003KT 28/16 A2997 RMK A01 T02750163  RH  050%=      5-min Rain = 0
KPD2 110923Z 11006KT 28/16 A2997 RMK A01 T02750162  RH  050%=      5-min Rain = 0
KPD2 110924Z 12005KT 28/16 A2997 RMK A01 T02750163  RH  050%=      5-min Rain = 0
KPD2 110925Z 11005KT 28/16 A2997 RMK A01 T02760163  RH  050%=      5-min Rain = 0
KPD2 110926Z 14006KT 28/16 A2997 RMK A01 T02780163  RH  050%=      5-min Rain = 0
KPD2 110927Z 15004KT 28/16 A2997 RMK A01 T02790164  RH  050%=      5-min Rain = 0
KPD2 110928Z 13004KT 28/16 A2997 RMK A01 T02800164  RH  049%=      5-min Rain = 0
KPD2 110929Z 15004KT 28/16 A2997 RMK A01 T02800164  RH  049%=      5-min Rain = 0
KPD2 110930Z 12004KT 28/16 A2997 RMK A01 T02810164  RH  049%=      5-min Rain = 0
KPD2 110931Z 12006KT 28/17 A2997 RMK A01 T02810165  RH  049%=      5-min Rain = 0
KPD2 110932Z 13005KT 28/17 A2997 RMK A01 T02810165  RH  049%=      5-min Rain = 0
KPD2 110933Z 16004KT 28/17 A2997 RMK A01 T02810165  RH  049%=      5-min Rain = 0
KPD2 110934Z 13004KT 28/16 A2997 RMK A01 T02820164  RH  049%=      5-min Rain = 0
KPD2 110935Z 15006KT 28/16 A2997 RMK A01 T02820164  RH  049%=      5-min Rain = 0
KPD2 110936Z 14003KT 28/16 A2997 RMK A01 T02820164  RH  049%=      5-min Rain = 0
KPD2 110937Z 13003KT 28/16 A2997 RMK A01 T02830164  RH  048%=      5-min Rain = 0
KPD2 110938Z 12004KT 28/16 A2997 RMK A01 T02840164  RH  048%=      5-min Rain = 0
KPD2 110939Z 13004KT 28/16 A2997 RMK A01 T02830164  RH  048%=      5-min Rain = 0
KPD2 110940Z 15004KT 28/16 A2997 RMK A01 T02820164  RH  049%=      5-min Rain = 0
KPD2 110941Z 14005KT 28/16 A2997 RMK A01 T02810164  RH  049%=      5-min Rain = 0
KPD2 110942Z 15004KT 28/17 A2997 RMK A01 T02810165  RH  049%=      5-min Rain = 0
KPD2 110943Z 14002KT 28/17 A2997 RMK A01 T02810165  RH  049%=      5-min Rain = 0
KPD2 110944Z 14002KT 28/17 A2997 RMK A01 T02810165  RH  049%=      5-min Rain = 0
KPD2 110945Z 18002KT 28/17 A2997 RMK A01 T02810165  RH  049%=      5-min Rain = 0
KPD2 110946Z 17002KT 28/17 A2997 RMK A01 T02800165  RH  050%=      5-min Rain = 0
KPD2 110947Z 22001KT 28/17 A2997 RMK A01 T02790166  RH  050%=      5-min Rain = 0
KPD2 110948Z 23001KT 28/17 A2997 RMK A01 T02770166  RH  051%=      5-min Rain = 0
KPD2 110949Z 25001KT 28/17 A2997 RMK A01 T02760165  RH  051%=      5-min Rain = 0
KPD2 110950Z 20000KT 27/17 A2997 RMK A01 T02740165  RH  051%=      5-min Rain = 0
KPD2 110951Z 19001KT 27/16 A2997 RMK A01 T02730164  RH  052%=      5-min Rain = 0
KPD2 110952Z 19001KT 27/16 A2997 RMK A01 T02720164  RH  052%=      5-min Rain = 0
KPD2 110953Z 19001KT 27/17 A2997 RMK A01 T02710165  RH  052%=      5-min Rain = 0
KPD2 110954Z 18000KT 27/17 A2997 RMK A01 T02700165  RH  053%=      5-min Rain = 0
KPD2 110955Z 00000KT 27/17 A2997 RMK A01 T02690167  RH  054%=      5-min Rain = 0
KPD2 110956Z 00000KT 27/17 A2997 RMK A01 T02670165  RH  054%=      5-min Rain = 0
KPD2 110957Z 20000KT 27/17 A2997 RMK A01 T02670166  RH  054%=      5-min Rain = 0
KPD2 110958Z 20001KT 27/17 A2997 RMK A01 T02660166  RH  054%=      5-min Rain = 0
KPD2 110959Z 16001KT 26/17 A2997 RMK A01 T02640165  RH  054%=      5-min Rain = 0
KPD2 111000Z 20002KT 26/16 A2997 RMK A01 T02630164  RH  054%=      5-min Rain = 0
KPD2 111001Z 20001KT 26/17 A2997 RMK A01 T02630165  RH  055%=      5-min Rain = 0
KPD2 111002Z 00000KT 26/17 A2997 RMK A01 T02620165  RH  055%=      5-min Rain = 0
KPD2 111003Z 18001KT 26/17 A2997 RMK A01 T02620165  RH  055%=      5-min Rain = 0
KPD2 111004Z 16002KT 26/17 A2997 RMK A01 T02610165  RH  056%=      5-min Rain = 0
KPD2 111005Z 16001KT 26/17 A2997 RMK A01 T02610166  RH  056%=      5-min Rain = 0
KPD2 111006Z 15003KT 26/17 A2997 RMK A01 T02610165  RH  056%=      5-min Rain = 0
KPD2 111007Z 18003KT 26/17 A2998 RMK A01 T02610165  RH  055%=      5-min Rain = 0
KPD2 111008Z 14001KT 26/16 A2998 RMK A01 T02620164  RH  055%=      5-min Rain = 0
KPD2 111009Z 15001KT 26/17 A2998 RMK A01 T02620165  RH  055%=      5-min Rain = 0
KPD2 111010Z 14002KT 26/17 A2998 RMK A01 T02620165  RH  055%=      5-min Rain = 0
KPD2 111011Z 13003KT 26/17 A2998 RMK A01 T02620165  RH  055%=      5-min Rain = 0
KPD2 111012Z 14003KT 26/17 A2998 RMK A01 T02620166  RH  055%=      5-min Rain = 0
KPD2 111013Z 14003KT 26/17 A2998 RMK A01 T02620167  RH  056%=      5-min Rain = 0
KPD2 111014Z 13003KT 26/17 A2998 RMK A01 T02610166  RH  056%=      5-min Rain = 0
KPD2 111015Z 14003KT 26/17 A2998 RMK A01 T02610166  RH  056%=      5-min Rain = 0
KPD2 111016Z 15003KT 26/17 A2998 RMK A01 T02610166  RH  056%=      5-min Rain = 0
KPD2 111017Z 12003KT 26/17 A2998 RMK A01 T02610167  RH  056%=      5-min Rain = 0
KPD2 111018Z 17003KT 26/17 A2998 RMK A01 T02620167  RH  056%=      5-min Rain = 0
KPD2 111019Z 15004KT 26/17 A2998 RMK A01 T02620166  RH  055%=      5-min Rain = 0
KPD2 111020Z 17004KT 26/17 A2998 RMK A01 T02640166  RH  055%=      5-min Rain = 0
KPD2 111021Z 16003KT 27/17 A2998 RMK A01 T02660166  RH  054%=      5-min Rain = 0
KPD2 111022Z 21003KT 27/17 A2998 RMK A01 T02660166  RH  054%=      5-min Rain = 0
KPD2 111023Z 22003KT 27/17 A2998 RMK A01 T02650167  RH  055%=      5-min Rain = 0
KPD2 111024Z 18001KT 26/17 A2998 RMK A01 T02630167  RH  055%=      5-min Rain = 0
KPD2 111025Z 17000KT 26/17 A2998 RMK A01 T02620166  RH  056%=      5-min Rain = 0
KPD2 111026Z 16001KT 26/17 A2998 RMK A01 T02610167  RH  056%=      5-min Rain = 0
KPD2 111027Z 18001KT 26/17 A2998 RMK A01 T02590167  RH  057%=      5-min Rain = 0
KPD2 111028Z 12002KT 26/17 A2998 RMK A01 T02580167  RH  057%=      5-min Rain = 0
KPD2 111029Z 15002KT 26/17 A2998 RMK A01 T02570166  RH  057%=      5-min Rain = 0
KPD2 111030Z 14004KT 26/17 A2998 RMK A01 T02580167  RH  057%=      5-min Rain = 0
KPD2 111031Z 13003KT 26/17 A2998 RMK A01 T02580166  RH  057%=      5-min Rain = 0
KPD2 111032Z 15007KT 26/17 A2998 RMK A01 T02600166  RH  056%=      5-min Rain = 0
KPD2 111033Z 14006KT 27/17 A2998 RMK A01 T02650167  RH  055%=      5-min Rain = 0
KPD2 111034Z 16007KT 27/17 A2998 RMK A01 T02700168  RH  054%=      5-min Rain = 0
KPD2 111035Z 15007KT 27/17 A2998 RMK A01 T02730168  RH  053%=      5-min Rain = 0
KPD2 111036Z 15006KT 28/17 A2998 RMK A01 T02760168  RH  052%=      5-min Rain = 0
KPD2 111037Z 14005KT 28/17 A2998 RMK A01 T02780169  RH  051%=      5-min Rain = 0
KPD2 111038Z 15004KT 28/17 A2998 RMK A01 T02790169  RH  051%=      5-min Rain = 0
KPD2 111039Z 17005KT 28/17 A2998 RMK A01 T02790170  RH  052%=      5-min Rain = 0
KPD2 111040Z 19004KT 28/17 A2998 RMK A01 T02770170  RH  052%=      5-min Rain = 0
KPD2 111041Z 15004KT 28/17 A2998 RMK A01 T02750170  RH  052%=      5-min Rain = 0
KPD2 111042Z 17003KT 27/17 A2998 RMK A01 T02740170  RH  053%=      5-min Rain = 0
KPD2 111043Z 16002KT 27/17 A2998 RMK A01 T02720170  RH  053%=      5-min Rain = 0
KPD2 111044Z 13003KT 27/17 A2998 RMK A01 T02700169  RH  054%=      5-min Rain = 0
KPD2 111045Z 12003KT 27/17 A2998 RMK A01 T02690169  RH  054%=      5-min Rain = 0
KPD2 111046Z 13003KT 27/17 A2998 RMK A01 T02680168  RH  054%=      5-min Rain = 0
KPD2 111047Z 15002KT 27/17 A2998 RMK A01 T02670167  RH  054%=      5-min Rain = 0
KPD2 111048Z 14002KT 27/17 A2998 RMK A01 T02670166  RH  054%=      5-min Rain = 0
KPD2 111049Z 12002KT 27/17 A2999 RMK A01 T02670167  RH  054%=      5-min Rain = 0
KPD2 111050Z 12003KT 27/17 A2999 RMK A01 T02670167  RH  054%=      5-min Rain = 0
KPD2 111051Z 12004KT 27/17 A2999 RMK A01 T02660167  RH  055%=      5-min Rain = 0
KPD2 111052Z 11003KT 27/17 A2999 RMK A01 T02650167  RH  055%=      5-min Rain = 0
KPD2 111053Z 11003KT 27/17 A2999 RMK A01 T02650167  RH  055%=      5-min Rain = 0
KPD2 111054Z 11002KT 27/17 A2999 RMK A01 T02650166  RH  054%=      5-min Rain = 0
KPD2 111055Z 13002KT 27/17 A2999 RMK A01 T02660167  RH  055%=      5-min Rain = 0
KPD2 111056Z 12003KT 27/17 A2999 RMK A01 T02660167  RH  054%=      5-min Rain = 0
KPD2 111057Z 11004KT 27/17 A2999 RMK A01 T02660167  RH  054%=      5-min Rain = 0
KPD2 111058Z 12004KT 27/17 A2999 RMK A01 T02670167  RH  054%=      5-min Rain = 0
KPD2 111059Z 13003KT 27/17 A2999 RMK A01 T02680168  RH  054%=      5-min Rain = 0
KPD2 111100Z 12003KT 27/17 A2999 RMK A01 T02680168  RH  054%=      5-min Rain = 0
KPD2 111101Z 15006KT 27/17 A2999 RMK A01 T02680168  RH  054%=      5-min Rain = 0
KPD2 111102Z 15005KT 27/17 A2999 RMK A01 T02690167  RH  054%=      5-min Rain = 0
KPD2 111103Z 13003KT 27/17 A2999 RMK A01 T02730168  RH  053%=      5-min Rain = 0
KPD2 111104Z 13004KT 28/17 A2999 RMK A01 T02760169  RH  052%=      5-min Rain = 0
KPD2 111105Z 13003KT 28/17 A2999 RMK A01 T02760168  RH  052%=      5-min Rain = 0
KPD2 111106Z 14006KT 28/17 A2999 RMK A01 T02770169  RH  052%=      5-min Rain = 0
KPD2 111107Z 13004KT 28/17 A2999 RMK A01 T02770169  RH  052%=      5-min Rain = 0
KPD2 111108Z 11005KT 28/17 A2999 RMK A01 T02770169  RH  052%=      5-min Rain = 0
KPD2 111109Z 13005KT 28/17 A2999 RMK A01 T02770170  RH  052%=      5-min Rain = 0
KPD2 111110Z 12006KT 28/17 A2999 RMK A01 T02770169  RH  052%=      5-min Rain = 0
KPD2 111111Z 12004KT 28/17 A2999 RMK A01 T02760169  RH  052%=      5-min Rain = 0
KPD2 111112Z 12005KT 28/17 A2999 RMK A01 T02760169  RH  052%=      5-min Rain = 0
KPD2 111113Z 13004KT 28/17 A2999 RMK A01 T02770170  RH  052%=      5-min Rain = 0
KPD2 111114Z 14004KT 28/17 A2999 RMK A01 T02760170  RH  052%=      5-min Rain = 0
KPD2 111115Z 13005KT 28/17 A2999 RMK A01 T02760169  RH  052%=      5-min Rain = 0
KPD2 111116Z 13007KT 28/17 A2999 RMK A01 T02760169  RH  052%=      5-min Rain = 0
KPD2 111117Z 13006KT 28/17 A2999 RMK A01 T02750170  RH  052%=      5-min Rain = 0
KPD2 111118Z 14005KT 28/17 A2999 RMK A01 T02750169  RH  052%=      5-min Rain = 0
KPD2 111119Z 14003KT 28/17 A2999 RMK A01 T02750170  RH  053%=      5-min Rain = 0
KPD2 111120Z 14004KT 28/17 A2999 RMK A01 T02750170  RH  053%=      5-min Rain = 0
KPD2 111121Z 13005KT 28/17 A2999 RMK A01 T02750169  RH  053%=      5-min Rain = 0
KPD2 111122Z 12005KT 28/17 A2999 RMK A01 T02750170  RH  053%=      5-min Rain = 0
KPD2 111123Z 14006KT 28/17 A2999 RMK A01 T02750169  RH  053%=      5-min Rain = 0
KPD2 111124Z 13005KT 28/17 A2999 RMK A01 T02750169  RH  052%=      5-min Rain = 0
KPD2 111125Z 12005KT 28/17 A2999 RMK A01 T02750169  RH  052%=      5-min Rain = 0
KPD2 111126Z 12004KT 28/17 A2999 RMK A01 T02750169  RH  052%=      5-min Rain = 0
KPD2 111127Z 12004KT 28/17 A2999 RMK A01 T02750169  RH  053%=      5-min Rain = 0
KPD2 111128Z 11005KT 27/17 A2999 RMK A01 T02740169  RH  053%=      5-min Rain = 0
KPD2 111129Z 12005KT 27/17 A2999 RMK A01 T02730169  RH  053%=      5-min Rain = 0
KPD2 111130Z 11004KT 27/17 A2999 RMK A01 T02720168  RH  053%=      5-min Rain = 0
KPD2 111131Z 15003KT 27/17 A2999 RMK A01 T02720168  RH  053%=      5-min Rain = 0
KPD2 111132Z 16003KT 27/17 A2999 RMK A01 T02720167  RH  053%=      5-min Rain = 0
KPD2 111133Z 13004KT 27/17 A2999 RMK A01 T02730167  RH  052%=      5-min Rain = 0
KPD2 111134Z 12005KT 27/17 A2999 RMK A01 T02730168  RH  052%=      5-min Rain = 0
KPD2 111135Z 11002KT 27/17 A2999 RMK A01 T02740168  RH  052%=      5-min Rain = 0
KPD2 111136Z 12003KT 27/17 A2999 RMK A01 T02740168  RH  052%=      5-min Rain = 0
KPD2 111137Z 13003KT 27/17 A2999 RMK A01 T02740168  RH  052%=      5-min Rain = 0
KPD2 111138Z 14004KT 27/17 A2999 RMK A01 T02740168  RH  052%=      5-min Rain = 0
KPD2 111139Z 12004KT 27/17 A2999 RMK A01 T02740169  RH  053%=      5-min Rain = 0
KPD2 111140Z 11006KT 27/17 A2999 RMK A01 T02730169  RH  053%=      5-min Rain = 0
KPD2 111141Z 12005KT 27/17 A2999 RMK A01 T02720170  RH  054%=      5-min Rain = 0
KPD2 111142Z 12004KT 27/17 A2999 RMK A01 T02710170  RH  054%=      5-min Rain = 0
KPD2 111143Z 11004KT 27/17 A2999 RMK A01 T02710169  RH  054%=      5-min Rain = 0
KPD2 111144Z 13004KT 27/17 A2999 RMK A01 T02710169  RH  054%=      5-min Rain = 0
KPD2 111145Z 14005KT 27/17 A2999 RMK A01 T02710170  RH  054%=      5-min Rain = 0
KPD2 111146Z 14004KT 27/17 A2999 RMK A01 T02710170  RH  054%=      5-min Rain = 0
KPD2 111147Z 11004KT 27/17 A2999 RMK A01 T02710169  RH  054%=      5-min Rain = 0
KPD2 111148Z 12004KT 27/17 A2999 RMK A01 T02710169  RH  054%=      5-min Rain = 0
KPD2 111149Z 12005KT 27/17 A2999 RMK A01 T02710169  RH  054%=      5-min Rain = 0
KPD2 111150Z 12002KT 27/17 A2999 RMK A01 T02710168  RH  053%=      5-min Rain = 0
KPD2 111151Z 11003KT 27/17 A2999 RMK A01 T02720168  RH  053%=      5-min Rain = 0
KPD2 111152Z 10002KT 27/17 A2999 RMK A01 T02720169  RH  053%=      5-min Rain = 0
KPD2 111153Z 12004KT 27/17 A30 RMK A01 T02720169  RH  053%=      5-min Rain = 0
KPD2 111154Z 12005KT 27/17 A30 RMK A01 T02720169  RH  053%=      5-min Rain = 0
KPD2 111155Z 11004KT 27/17 A30 RMK A01 T02720169  RH  054%=      5-min Rain = 0
KPD2 111156Z 09003KT 27/17 A30 RMK A01 T02710169  RH  054%=      5-min Rain = 0
KPD2 111157Z 10003KT 27/17 A30 RMK A01 T02710169  RH  054%=      5-min Rain = 0
KPD2 111158Z 10002KT 27/17 A30 RMK A01 T02710168  RH  054%=      5-min Rain = 0
KPD2 111159Z 13002KT 27/17 A30 RMK A01 T02700169  RH  054%=      5-min Rain = 0
KPD2 111200Z 12005KT 27/17 A30 RMK A01 T02700169  RH  054%=      5-min Rain = 0
KPD2 111201Z 12004KT 27/17 A30 RMK A01 T02690169  RH  054%=      5-min Rain = 0
KPD2 111202Z 13005KT 27/17 A30 RMK A01 T02690168  RH  054%=      5-min Rain = 0
KPD2 111203Z 12004KT 27/17 A30 RMK A01 T02680168  RH  054%=      5-min Rain = 0
KPD2 111204Z 12004KT 27/17 A30 RMK A01 T02680168  RH  054%=      5-min Rain = 0
KPD2 111205Z 11004KT 27/17 A30 RMK A01 T02680168  RH  054%=      5-min Rain = 0
KPD2 111206Z 12006KT 27/17 A30 RMK A01 T02680169  RH  054%=      5-min Rain = 0
KPD2 111207Z 12004KT 27/17 A30 RMK A01 T02680169  RH  054%=      5-min Rain = 0
KPD2 111208Z 11004KT 27/17 A30 RMK A01 T02680169  RH  054%=      5-min Rain = 0
KPD2 111209Z 11004KT 27/17 A30 RMK A01 T02680169  RH  054%=      5-min Rain = 0
KPD2 111210Z 11003KT 27/17 A30 RMK A01 T02680169  RH  054%=      5-min Rain = 0
KPD2 111211Z 13004KT 27/17 A30 RMK A01 T02680169  RH  054%=      5-min Rain = 0
KPD2 111212Z 12004KT 27/17 A30 RMK A01 T02680168  RH  054%=      5-min Rain = 0
KPD2 111213Z 13004KT 27/17 A30 RMK A01 T02670168  RH  054%=      5-min Rain = 0
KPD2 111214Z 11004KT 27/17 A30 RMK A01 T02670168  RH  055%=      5-min Rain = 0
KPD2 111215Z 11005KT 27/17 A30 RMK A01 T02670169  RH  055%=      5-min Rain = 0
KPD2 111216Z 11005KT 27/17 A30 RMK A01 T02670168  RH  055%=      5-min Rain = 0
KPD2 111217Z 11006KT 27/17 A30 RMK A01 T02670168  RH  055%=      5-min Rain = 0
KPD2 111218Z 12005KT 27/17 A30 RMK A01 T02670168  RH  055%=      5-min Rain = 0
KPD2 111219Z 11004KT 27/17 A30 RMK A01 T02670168  RH  054%=      5-min Rain = 0
KPD2 111220Z 13005KT 27/17 A30 RMK A01 T02680168  RH  054%=      5-min Rain = 0
KPD2 111221Z 11005KT 27/17 A30 RMK A01 T02670168  RH  055%=      5-min Rain = 0
KPD2 111222Z 12004KT 27/17 A30 RMK A01 T02670169  RH  055%=      5-min Rain = 0
KPD2 111223Z 12004KT 27/17 A30 RMK A01 T02670169  RH  055%=      5-min Rain = 0
KPD2 111224Z 14004KT 27/17 A30 RMK A01 T02670168  RH  054%=      5-min Rain = 0
KPD2 111225Z 11004KT 27/17 A30 RMK A01 T02670168  RH  054%=      5-min Rain = 0
KPD2 111226Z 11002KT 27/17 A30 RMK A01 T02680169  RH  055%=      5-min Rain = 0
KPD2 111227Z 11001KT 27/17 A30 RMK A01 T02670168  RH  054%=      5-min Rain = 0
KPD2 111228Z 11003KT 27/17 A30 RMK A01 T02670167  RH  054%=      5-min Rain = 0
KPD2 111229Z 10004KT 27/17 A30 RMK A01 T02680168  RH  054%=      5-min Rain = 0
KPD2 111230Z 11005KT 27/17 A30 RMK A01 T02680167  RH  054%=      5-min Rain = 0
KPD2 111231Z 12004KT 27/17 A30 RMK A01 T02680167  RH  054%=      5-min Rain = 0
KPD2 111232Z 10005KT 27/17 A30 RMK A01 T02690168  RH  054%=      5-min Rain = 0
KPD2 111233Z 12004KT 27/17 A30 RMK A01 T02690168  RH  054%=      5-min Rain = 0
KPD2 111234Z 12005KT 27/17 A30 RMK A01 T02690168  RH  054%=      5-min Rain = 0
KPD2 111235Z 12005KT 27/17 A30 RMK A01 T02700168  RH  054%=      5-min Rain = 0
KPD2 111236Z 10005KT 27/17 A30 RMK A01 T02700168  RH  054%=      5-min Rain = 0
KPD2 111237Z 11004KT 27/17 A30 RMK A01 T02700168  RH  054%=      5-min Rain = 0
KPD2 111238Z 13003KT 27/17 A30 RMK A01 T02700167  RH  053%=      5-min Rain = 0
KPD2 111239Z 11004KT 27/17 A30 RMK A01 T02710168  RH  053%=      5-min Rain = 0
KPD2 111240Z 12004KT 27/17 A3001 RMK A01 T02710169  RH  054%=      5-min Rain = 0
KPD2 111241Z 10005KT 27/17 A30 RMK A01 T02710169  RH  054%=      5-min Rain = 0
KPD2 111242Z 11004KT 27/17 A30 RMK A01 T02710169  RH  054%=      5-min Rain = 0
KPD2 111243Z 10004KT 27/17 A30 RMK A01 T02700169  RH  054%=      5-min Rain = 0
KPD2 111244Z 10003KT 27/17 A30 RMK A01 T02700169  RH  054%=      5-min Rain = 0
KPD2 111245Z 11002KT 27/17 A30 RMK A01 T02700169  RH  054%=      5-min Rain = 0
KPD2 111246Z 10002KT 27/17 A30 RMK A01 T02700169  RH  054%=      5-min Rain = 0
KPD2 111247Z 11003KT 27/17 A3001 RMK A01 T02700169  RH  054%=      5-min Rain = 0
KPD2 111248Z 12003KT 27/17 A3001 RMK A01 T02700170  RH  054%=      5-min Rain = 0
KPD2 111249Z 10004KT 27/17 A3001 RMK A01 T02700169  RH  054%=      5-min Rain = 0
KPD2 111250Z 10003KT 27/17 A3001 RMK A01 T02700168  RH  054%=      5-min Rain = 0
KPD2 111251Z 10002KT 27/17 A3001 RMK A01 T02700168  RH  054%=      5-min Rain = 0
KPD2 111252Z 12003KT 27/17 A3001 RMK A01 T02700169  RH  054%=      5-min Rain = 0
KPD2 111253Z 10002KT 27/17 A3001 RMK A01 T02700168  RH  054%=      5-min Rain = 0
KPD2 111254Z 08001KT 27/17 A3001 RMK A01 T02700166  RH  053%=      5-min Rain = 0
KPD2 111255Z 04002KT 27/17 A3001 RMK A01 T02710168  RH  053%=      5-min Rain = 0
KPD2 111256Z 04002KT 27/17 A3001 RMK A01 T02710170  RH  054%=      5-min Rain = 0
KPD2 111257Z 07002KT 27/17 A3001 RMK A01 T02710170  RH  054%=      5-min Rain = 0
KPD2 111258Z 10001KT 27/17 A3001 RMK A01 T02710169  RH  054%=      5-min Rain = 0
KPD2 111259Z 06001KT 27/17 A3001 RMK A01 T02710171  RH  054%=      5-min Rain = 0
KPD2 111300Z 05002KT 27/17 A3001 RMK A01 T02700174  RH  056%=      5-min Rain = 0
KPD2 111301Z 05001KT 27/17 A3001 RMK A01 T02690173  RH  056%=      5-min Rain = 0
KPD2 111302Z 03000KT 27/17 A3001 RMK A01 T02680173  RH  056%=      5-min Rain = 0
KPD2 111303Z 03001KT 27/17 A3001 RMK A01 T02670172  RH  056%=      5-min Rain = 0
KPD2 111304Z 03001KT 27/17 A3001 RMK A01 T02660174  RH  057%=      5-min Rain = 0
KPD2 111305Z 01002KT 27/18 A3001 RMK A01 T02650175  RH  058%=      5-min Rain = 0
KPD2 111306Z 01002KT 26/17 A3001 RMK A01 T02630173  RH  057%=      5-min Rain = 0
KPD2 111307Z 01003KT 26/17 A3001 RMK A01 T02620172  RH  057%=      5-min Rain = 0
KPD2 111308Z 03004KT 26/17 A3001 RMK A01 T02620169  RH  057%=      5-min Rain = 0
KPD2 111309Z 06004KT 26/17 A3001 RMK A01 T02630166  RH  055%=      5-min Rain = 0
KPD2 111310Z 06002KT 27/17 A3001 RMK A01 T02660165  RH  054%=      5-min Rain = 0
KPD2 111311Z 31001KT 27/17 A3001 RMK A01 T02680169  RH  055%=      5-min Rain = 0
KPD2 111312Z 32002KT 27/17 A3001 RMK A01 T02690168  RH  054%=      5-min Rain = 0
KPD2 111313Z 32002KT 27/17 A3001 RMK A01 T02700170  RH  054%=      5-min Rain = 0
KPD2 111314Z 28002KT 27/17 A3001 RMK A01 T02700169  RH  054%=      5-min Rain = 0
KPD2 111315Z 28001KT 27/17 A3001 RMK A01 T02710165  RH  052%=      5-min Rain = 0
KPD2 111316Z 31001KT 27/17 A3001 RMK A01 T02740166  RH  052%=      5-min Rain = 0
KPD2 111317Z 32003KT 28/17 A3001 RMK A01 T02750168  RH  052%=      5-min Rain = 0
KPD2 111318Z 33002KT 28/17 A3002 RMK A01 T02760171  RH  053%=      5-min Rain = 0
KPD2 111319Z 01001KT 28/17 A3002 RMK A01 T02760173  RH  053%=      5-min Rain = 0
KPD2 111320Z 01000KT 28/17 A3002 RMK A01 T02760173  RH  053%=      5-min Rain = 0
KPD2 111321Z 36001KT 28/17 A3002 RMK A01 T02770174  RH  053%=      5-min Rain = 0
KPD2 111322Z 34002KT 28/17 A3001 RMK A01 T02780174  RH  053%=      5-min Rain = 0
KPD2 111323Z 33000KT 28/17 A3002 RMK A01 T02790171  RH  052%=      5-min Rain = 0
KPD2 111324Z 03002KT 28/17 A3002 RMK A01 T02800169  RH  051%=      5-min Rain = 0
KPD2 111325Z 12004KT 28/17 A3002 RMK A01 T02810167  RH  050%=      5-min Rain = 0
KPD2 111326Z 14004KT 28/17 A3002 RMK A01 T02820166  RH  049%=      5-min Rain = 0
KPD2 111327Z 17003KT 28/17 A3002 RMK A01 T02820167  RH  050%=      5-min Rain = 0
KPD2 111328Z 20003KT 28/17 A3002 RMK A01 T02830165  RH  049%=      5-min Rain = 0
KPD2 111329Z 20003KT 28/17 A3002 RMK A01 T02840165  RH  048%=      5-min Rain = 0
KPD2 111330Z 20002KT 29/17 A3002 RMK A01 T02850165  RH  048%=      5-min Rain = 0
KPD2 111331Z 24002KT 29/16 A3002 RMK A01 T02860164  RH  048%=      5-min Rain = 0
KPD2 111332Z 21002KT 29/17 A3002 RMK A01 T02860165  RH  048%=      5-min Rain = 0
KPD2 111333Z 16002KT 29/17 A3002 RMK A01 T02870165  RH  047%=      5-min Rain = 0
KPD2 111334Z 15003KT 29/16 A3002 RMK A01 T02880163  RH  047%=      5-min Rain = 0
KPD2 111335Z 17003KT 29/16 A3002 RMK A01 T02890164  RH  047%=      5-min Rain = 0
KPD2 111336Z 17003KT 29/16 A3002 RMK A01 T02890163  RH  047%=      5-min Rain = 0
KPD2 111337Z 17004KT 29/16 A3002 RMK A01 T02900163  RH  046%=      5-min Rain = 0
KPD2 111338Z 17006KT 29/16 A3002 RMK A01 T02900164  RH  046%=      5-min Rain = 0
KPD2 111339Z 19005KT 29/16 A3002 RMK A01 T02900162  RH  046%=      5-min Rain = 0
KPD2 111340Z 17003KT 29/16 A3002 RMK A01 T02900163  RH  046%=      5-min Rain = 0
KPD2 111341Z 18005G10KT 29/16 A3002 RMK A01 T02900163  RH  046%=      5-min Rain = 0
KPD2 111342Z 17007KT 29/16 A3002 RMK A01 T02910164  RH  046%=      5-min Rain = 0
KPD2 111343Z 18005KT 29/16 A3002 RMK A01 T02910163  RH  046%=      5-min Rain = 0
KPD2 111344Z 17005KT 29/16 A3002 RMK A01 T02910163  RH  046%=      5-min Rain = 0
KPD2 111345Z 19008KT 29/16 A3002 RMK A01 T02920163  RH  046%=      5-min Rain = 0
KPD2 111346Z 20005KT 29/16 A3002 RMK A01 T02920162  RH  046%=      5-min Rain = 0
KPD2 111347Z 20005KT 29/16 A3002 RMK A01 T02920163  RH  046%=      5-min Rain = 0
KPD2 111348Z 19006KT 29/16 A3002 RMK A01 T02920163  RH  046%=      5-min Rain = 0
KPD2 111349Z 19006KT 29/16 A3002 RMK A01 T02930163  RH  045%=      5-min Rain = 0
KPD2 111350Z 18003KT 29/16 A3002 RMK A01 T02940162  RH  045%=      5-min Rain = 0
KPD2 111351Z 16006KT 29/16 A3002 RMK A01 T02940163  RH  045%=      5-min Rain = 0
KPD2 111352Z 17006KT 29/16 A3002 RMK A01 T02940163  RH  045%=      5-min Rain = 0
KPD2 111353Z 18008G14KT 29/16 A3002 RMK A01 T02940162  RH  045%=      5-min Rain = 0
KPD2 111354Z 19008KT 30/16 A3002 RMK A01 T02950162  RH  045%=      5-min Rain = 0
KPD2 111355Z 19011KT 30/16 A3002 RMK A01 T02950161  RH  045%=      5-min Rain = 0
KPD2 111356Z 18005KT 29/16 A3003 RMK A01 T02940161  RH  045%=      5-min Rain = 0
KPD2 111357Z 18004G10KT 30/16 A3003 RMK A01 T02950164  RH  045%=      5-min Rain = 0
KPD2 111358Z 20010KT 30/16 A3003 RMK A01 T02950162  RH  044%=      5-min Rain = 0
KPD2 111359Z 20010KT 30/16 A3003 RMK A01 T02950162  RH  044%=      5-min Rain = 0
KPD2 111400Z 23011KT 30/16 A3002 RMK A01 T02960162  RH  044%=      5-min Rain = 0
KPD2 111401Z 24007KT 30/16 A3002 RMK A01 T02950163  RH  045%=      5-min Rain = 0
KPD2 111402Z 23006KT 30/16 A3003 RMK A01 T02950162  RH  044%=      5-min Rain = 0
KPD2 111403Z 17004KT 30/16 A3003 RMK A01 T02960164  RH  045%=      5-min Rain = 0
KPD2 111404Z 17005KT 30/17 A3003 RMK A01 T02960165  RH  045%=      5-min Rain = 0
KPD2 111405Z 23006KT 30/16 A3003 RMK A01 T02980164  RH  044%=      5-min Rain = 0
KPD2 111406Z 23007KT 30/16 A3003 RMK A01 T02990163  RH  044%=      5-min Rain = 0
KPD2 111407Z 25007KT 30/16 A3003 RMK A01 T02990164  RH  044%=      5-min Rain = 0
KPD2 111408Z 22005KT 30/17 A3003 RMK A01 T02980166  RH  045%=      5-min Rain = 0
KPD2 111409Z 19004KT 30/17 A3003 RMK A01 T02990165  RH  044%=      5-min Rain = 0
KPD2 111410Z 19003KT 30/16 A3003 RMK A01 T02990163  RH  044%=      5-min Rain = 0
KPD2 111411Z 25005KT 30/16 A3003 RMK A01 T03000164  RH  044%=      5-min Rain = 0
KPD2 111412Z 24005KT 30/17 A3003 RMK A01 T03000166  RH  044%=      5-min Rain = 0
KPD2 111413Z 23006KT 30/17 A3003 RMK A01 T03010167  RH  044%=      5-min Rain = 0
KPD2 111414Z 25005KT 30/16 A3003 RMK A01 T03020163  RH  043%=      5-min Rain = 0
KPD2 111415Z 28006G13KT 30/16 A3003 RMK A01 T03020162  RH  043%=      5-min Rain = 0
KPD2 111416Z 18008KT 30/16 A3003 RMK A01 T03010163  RH  043%=      5-min Rain = 0
KPD2 111417Z 16004KT 30/16 A3003 RMK A01 T03010161  RH  043%=      5-min Rain = 0
KPD2 111418Z 11004KT 30/16 A3003 RMK A01 T03010161  RH  043%=      5-min Rain = 0
KPD2 111419Z 16005KT 30/16 A3003 RMK A01 T03020164  RH  043%=      5-min Rain = 0
KPD2 111420Z 22006KT 30/17 A3003 RMK A01 T03040167  RH  044%=      5-min Rain = 0
KPD2 111421Z 16008KT 31/16 A3003 RMK A01 T03050162  RH  042%=      5-min Rain = 0
KPD2 111422Z 18004KT 31/16 A3003 RMK A01 T03060162  RH  042%=      5-min Rain = 0
KPD2 111423Z 16005KT 31/16 A3003 RMK A01 T03070164  RH  042%=      5-min Rain = 0
KPD2 111424Z 09002KT 31/16 A3003 RMK A01 T03070161  RH  041%=      5-min Rain = 0
KPD2 111425Z 18005G11KT 31/16 A3004 RMK A01 T03070162  RH  042%=      5-min Rain = 0
KPD2 111426Z 19008KT 31/16 A3004 RMK A01 T03070161  RH  041%=      5-min Rain = 0
KPD2 111427Z 20005KT 31/16 A3004 RMK A01 T03070161  RH  041%=      5-min Rain = 0
KPD2 111428Z 29003KT 31/16 A3004 RMK A01 T03080163  RH  042%=      5-min Rain = 0
KPD2 111429Z 28003KT 31/17 A3004 RMK A01 T03090165  RH  042%=      5-min Rain = 0
KPD2 111430Z 25002KT 31/17 A3004 RMK A01 T03090165  RH  042%=      5-min Rain = 0
KPD2 111431Z 20002KT 31/17 A3004 RMK A01 T03100165  RH  042%=      5-min Rain = 0
KPD2 111432Z 24002KT 31/16 A3004 RMK A01 T03120164  RH  041%=      5-min Rain = 0
KPD2 111433Z 26001KT 31/17 A3004 RMK A01 T03140165  RH  041%=      5-min Rain = 0
KPD2 111434Z 28004KT 32/17 A3004 RMK A01 T03160166  RH  041%=      5-min Rain = 0
KPD2 111435Z 29007KT 32/16 A3004 RMK A01 T03160163  RH  040%=      5-min Rain = 0
KPD2 111436Z 27007G12KT 32/16 A3004 RMK A01 T03160162  RH  040%=      5-min Rain = 0
KPD2 111437Z 25007KT 32/16 A3004 RMK A01 T03150162  RH  040%=      5-min Rain = 0
KPD2 111438Z 25007KT 31/16 A3004 RMK A01 T03140162  RH  040%=      5-min Rain = 0
KPD2 111439Z 21005KT 31/16 A3004 RMK A01 T03140161  RH  040%=      5-min Rain = 0
KPD2 111440Z 24003KT 31/16 A3004 RMK A01 T03140164  RH  040%=      5-min Rain = 0
KPD2 111441Z 25005KT 32/17 A3004 RMK A01 T03150165  RH  040%=      5-min Rain = 0
KPD2 111442Z 26008KT 32/16 A3004 RMK A01 T03160163  RH  040%=      5-min Rain = 0
KPD2 111443Z 27006G11KT 32/17 A3004 RMK A01 T03170165  RH  040%=      5-min Rain = 0
KPD2 111444Z 22003KT 32/17 A3004 RMK A01 T03170165  RH  040%=      5-min Rain = 0
KPD2 111445Z 24002KT 32/16 A3004 RMK A01 T03180161  RH  039%=      5-min Rain = 0
KPD2 111446Z 22003KT 32/16 A3003 RMK A01 T03190161  RH  039%=      5-min Rain = 0
KPD2 111447Z 20006KT 32/16 A3003 RMK A01 T03190160  RH  038%=      5-min Rain = 0
KPD2 111448Z 24005KT 32/16 A3003 RMK A01 T03190160  RH  039%=      5-min Rain = 0
KPD2 111449Z 25002KT 32/16 A3003 RMK A01 T03180163  RH  039%=      5-min Rain = 0
KPD2 111450Z 23004G11KT 32/16 A3003 RMK A01 T03190164  RH  039%=      5-min Rain = 0
KPD2 111451Z 21009KT 32/16 A3003 RMK A01 T03200162  RH  039%=      5-min Rain = 0
KPD2 111452Z 22007G12KT 32/16 A3003 RMK A01 T03200160  RH  038%=      5-min Rain = 0
KPD2 111453Z 20005KT 32/16 A3003 RMK A01 T03200161  RH  038%=      5-min Rain = 0
KPD2 111454Z 23005KT 32/16 A3003 RMK A01 T03190160  RH  038%=      5-min Rain = 0
KPD2 111455Z 22003KT 32/16 A3003 RMK A01 T03200163  RH  039%=      5-min Rain = 0
KPD2 111456Z 22003KT 32/16 A3003 RMK A01 T03210162  RH  038%=      5-min Rain = 0
KPD2 111457Z 22005KT 32/16 A3003 RMK A01 T03220162  RH  038%=      5-min Rain = 0
KPD2 111458Z 23005KT 32/16 A3003 RMK A01 T03230163  RH  038%=      5-min Rain = 0
KPD2 111459Z 24005KT 32/16 A3003 RMK A01 T03230163  RH  038%=      5-min Rain = 0
KPD2 111500Z 23005KT 32/16 A3003 RMK A01 T03240161  RH  038%=      5-min Rain = 0
KPD2 111501Z 25005KT 32/16 A3003 RMK A01 T03240163  RH  038%=      5-min Rain = 0
KPD2 111502Z 19005KT 32/16 A3003 RMK A01 T03240162  RH  038%=      5-min Rain = 0
KPD2 111503Z 21007KT 33/16 A3003 RMK A01 T03250159  RH  037%=      5-min Rain = 0
KPD2 111504Z 22004G9KT 33/16 A3003 RMK A01 T03250159  RH  037%=      5-min Rain = 0
KPD2 111505Z 23004KT 33/16 A3003 RMK A01 T03260161  RH  037%=      5-min Rain = 0
KPD2 111506Z 22008KT 33/16 A3003 RMK A01 T03260159  RH  037%=      5-min Rain = 0
KPD2 111507Z 21007KT 33/16 A3003 RMK A01 T03260156  RH  036%=      5-min Rain = 0
KPD2 111508Z 22007KT 33/16 A3003 RMK A01 T03250158  RH  037%=      5-min Rain = 0
KPD2 111509Z 21005KT 33/16 A3003 RMK A01 T03250157  RH  036%=      5-min Rain = 0
KPD2 111510Z 21008KT 33/16 A3003 RMK A01 T03250158  RH  037%=      5-min Rain = 0
KPD2 111511Z 24004KT 33/16 A3003 RMK A01 T03250157  RH  036%=      5-min Rain = 0
KPD2 111512Z 23003KT 33/16 A3003 RMK A01 T03260157  RH  036%=      5-min Rain = 0
KPD2 111513Z 25009KT 33/16 A3003 RMK A01 T03270159  RH  037%=      5-min Rain = 0
KPD2 111514Z 25009KT 33/16 A3003 RMK A01 T03270160  RH  037%=      5-min Rain = 0
KPD2 111515Z 26004KT 33/16 A3003 RMK A01 T03290160  RH  036%=      5-min Rain = 0
KPD2 111516Z 26004KT 33/16 A3003 RMK A01 T03290161  RH  036%=      5-min Rain = 0
KPD2 111517Z 23005KT 33/16 A3003 RMK A01 T03300162  RH  037%=      5-min Rain = 0
KPD2 111518Z 24008G13KT 33/16 A3003 RMK A01 T03310162  RH  036%=      5-min Rain = 0
KPD2 111519Z 25007G12KT 33/16 A3003 RMK A01 T03320161  RH  036%=      5-min Rain = 0
KPD2 111520Z 24008KT 33/16 A3003 RMK A01 T03320159  RH  035%=      5-min Rain = 0
KPD2 111521Z 26007KT 33/16 A3003 RMK A01 T03320161  RH  036%=      5-min Rain = 0
KPD2 111522Z 22009KT 33/16 A3003 RMK A01 T03310160  RH  036%=      5-min Rain = 0
KPD2 111523Z 20006KT 33/16 A3003 RMK A01 T03310159  RH  036%=      5-min Rain = 0
KPD2 111524Z 23006KT 33/16 A3003 RMK A01 T03320160  RH  036%=      5-min Rain = 0
KPD2 111525Z 24007KT 33/16 A3003 RMK A01 T03330160  RH  036%=      5-min Rain = 0
KPD2 111526Z 22007KT 33/16 A3003 RMK A01 T03330161  RH  036%=      5-min Rain = 0
KPD2 111527Z 22006KT 33/16 A3003 RMK A01 T03340159  RH  035%=      5-min Rain = 0
KPD2 111528Z 25005KT 33/16 A3003 RMK A01 T03340161  RH  036%=      5-min Rain = 0
KPD2 111529Z 26005G11KT 33/16 A3003 RMK A01 T03340161  RH  036%=      5-min Rain = 0
KPD2 111530Z 24006KT 33/16 A3003 RMK A01 T03340162  RH  036%=      5-min Rain = 0
KPD2 111531Z 26006KT 34/16 A3003 RMK A01 T03350163  RH  036%=      5-min Rain = 0
KPD2 111532Z 24006G11KT 34/16 A3003 RMK A01 T03370163  RH  035%=      5-min Rain = 0
KPD2 111533Z 25006KT 34/16 A3003 RMK A01 T03380160  RH  035%=      5-min Rain = 0
KPD2 111534Z 26005KT 34/16 A3003 RMK A01 T03370161  RH  035%=      5-min Rain = 0
KPD2 111535Z 21005KT 34/16 A3003 RMK A01 T03370162  RH  035%=      5-min Rain = 0
KPD2 111536Z 24005KT 34/16 A3003 RMK A01 T03370160  RH  035%=      5-min Rain = 0
KPD2 111537Z 24006KT 34/16 A3003 RMK A01 T03380161  RH  035%=      5-min Rain = 0
KPD2 111538Z 24005KT 34/16 A3003 RMK A01 T03380160  RH  034%=      5-min Rain = 0
KPD2 111539Z 24005G14KT 34/16 A3003 RMK A01 T03380159  RH  034%=      5-min Rain = 0
KPD2 111540Z 24012KT 34/16 A3002 RMK A01 T03380160  RH  035%=      5-min Rain = 0
KPD2 111541Z 27008KT 34/16 A3003 RMK A01 T03380161  RH  035%=      5-min Rain = 0
KPD2 111542Z 24003KT 34/16 A3003 RMK A01 T03390161  RH  034%=      5-min Rain = 0
KPD2 111543Z 24003KT 34/16 A3003 RMK A01 T03400163  RH  035%=      5-min Rain = 0
KPD2 111544Z 22004KT 34/16 A3003 RMK A01 T03420164  RH  035%=      5-min Rain = 0
KPD2 111545Z 25003KT 34/16 A3003 RMK A01 T03430164  RH  034%=      5-min Rain = 0
KPD2 111546Z 24007KT 34/16 A3003 RMK A01 T03440164  RH  034%=      5-min Rain = 0
KPD2 111547Z 23006G11KT 35/16 A3003 RMK A01 T03450162  RH  034%=      5-min Rain = 0
KPD2 111548Z 22006KT 35/16 A3003 RMK A01 T03450161  RH  033%=      5-min Rain = 0
KPD2 111549Z 20007KT 34/16 A3003 RMK A01 T03440160  RH  033%=      5-min Rain = 0
KPD2 111550Z 20007KT 34/16 A3003 RMK A01 T03430160  RH  034%=      5-min Rain = 0
KPD2 111551Z 21006KT 34/16 A3002 RMK A01 T03430160  RH  034%=      5-min Rain = 0
KPD2 111552Z 22004KT 34/16 A3002 RMK A01 T03430160  RH  034%=      5-min Rain = 0
KPD2 111553Z 23007KT 34/16 A3003 RMK A01 T03440164  RH  034%=      5-min Rain = 0
KPD2 111554Z 21005KT 35/16 A3003 RMK A01 T03450163  RH  034%=      5-min Rain = 0
KPD2 111555Z 22005KT 35/16 A3003 RMK A01 T03460162  RH  033%=      5-min Rain = 0
KPD2 111556Z 23003KT 35/16 A3003 RMK A01 T03480162  RH  033%=      5-min Rain = 0
KPD2 111557Z 22003KT 35/16 A3002 RMK A01 T03460161  RH  033%=      5-min Rain = 0
KPD2 111558Z 22004KT 35/16 A3002 RMK A01 T03460163  RH  034%=      5-min Rain = 0
KPD2 111559Z 23005KT 35/16 A3002 RMK A01 T03470163  RH  034%=      5-min Rain = 0
KPD2 111600Z 24005G11KT 35/17 A3003 RMK A01 T03480165  RH  034%=      5-min Rain = 0
KPD2 111601Z 22007KT 35/16 A3003 RMK A01 T03500164  RH  033%=      5-min Rain = 0
KPD2 111602Z 19005KT 35/16 A3003 RMK A01 T03500162  RH  033%=      5-min Rain = 0
KPD2 111603Z 25004G9KT 35/17 A3003 RMK A01 T03480165  RH  034%=      5-min Rain = 0
KPD2 111604Z 21009KT 35/17 A3003 RMK A01 T03500165  RH  033%=      5-min Rain = 0
KPD2 111605Z 22007KT 35/16 A3003 RMK A01 T03510163  RH  033%=      5-min Rain = 0
KPD2 111606Z 23008KT 35/17 A3003 RMK A01 T03510165  RH  033%=      5-min Rain = 0
KPD2 111607Z 25009KT 35/16 A3003 RMK A01 T03530164  RH  033%=      5-min Rain = 0
KPD2 111608Z 24003KT 35/16 A3003 RMK A01 T03510162  RH  033%=      5-min Rain = 0
KPD2 111609Z 26005KT 35/16 A3003 RMK A01 T03480162  RH  033%=      5-min Rain = 0
KPD2 111610Z 27005KT 35/16 A3003 RMK A01 T03460163  RH  034%=      5-min Rain = 0
KPD2 111611Z 24004KT 35/16 A3003 RMK A01 T03450163  RH  034%=      5-min Rain = 0
KPD2 111612Z 25004KT 35/17 A3003 RMK A01 T03460166  RH  034%=      5-min Rain = 0
KPD2 111613Z 23007KT 35/16 A3003 RMK A01 T03470164  RH  034%=      5-min Rain = 0
KPD2 111614Z 24008KT 35/16 A3003 RMK A01 T03470164  RH  034%=      5-min Rain = 0
KPD2 111615Z 23005KT 35/16 A3003 RMK A01 T03460163  RH  034%=      5-min Rain = 0
KPD2 111616Z 23004KT 35/17 A3003 RMK A01 T03450165  RH  034%=      5-min Rain = 0
KPD2 111617Z 22007KT 35/16 A3003 RMK A01 T03460164  RH  034%=      5-min Rain = 0
KPD2 111618Z 22007KT 35/16 A3003 RMK A01 T03480164  RH  033%=      5-min Rain = 0
KPD2 111619Z 21005KT 35/16 A3003 RMK A01 T03490162  RH  033%=      5-min Rain = 0
KPD2 111620Z 21009KT 35/16 A3003 RMK A01 T03490164  RH  033%=      5-min Rain = 0
KPD2 111621Z 19008KT 35/16 A3003 RMK A01 T03510164  RH  033%=      5-min Rain = 0
KPD2 111622Z 19007KT 35/16 A3003 RMK A01 T03520163  RH  033%=      5-min Rain = 0
KPD2 111623Z 19006KT 35/16 A3003 RMK A01 T03510164  RH  033%=      5-min Rain = 0
KPD2 111624Z 19004KT 35/17 A3003 RMK A01 T03510165  RH  033%=      5-min Rain = 0
KPD2 111625Z 20007KT 35/16 A3003 RMK A01 T03510164  RH  033%=      5-min Rain = 0
KPD2 111626Z 24003KT 35/16 A3003 RMK A01 T03510164  RH  033%=      5-min Rain = 0
KPD2 111627Z 20005KT 35/16 A3003 RMK A01 T03500164  RH  033%=      5-min Rain = 0
KPD2 111628Z 20008KT 35/16 A3003 RMK A01 T03500164  RH  033%=      5-min Rain = 0
KPD2 111629Z 24005KT 35/16 A3003 RMK A01 T03500164  RH  033%=      5-min Rain = 0
KPD2 111630Z 20004KT 35/16 A3003 RMK A01 T03500164  RH  033%=      5-min Rain = 0
KPD2 111631Z 26002KT 35/16 A3003 RMK A01 T03510164  RH  033%=      5-min Rain = 0
KPD2 111632Z 28005KT 35/17 A3003 RMK A01 T03510166  RH  033%=      5-min Rain = 0
KPD2 111633Z 27006KT 35/17 A3003 RMK A01 T03520167  RH  033%=      5-min Rain = 0
KPD2 111634Z 25003KT 35/17 A3003 RMK A01 T03520166  RH  033%=      5-min Rain = 0
KPD2 111635Z 15001KT 35/16 A3002 RMK A01 T03520163  RH  033%=      5-min Rain = 0
KPD2 111636Z 27003KT 35/17 A3002 RMK A01 T03520166  RH  033%=      5-min Rain = 0
KPD2 111637Z 23006KT 35/17 A3002 RMK A01 T03520166  RH  033%=      5-min Rain = 0
KPD2 111638Z 22006KT 35/17 A3002 RMK A01 T03530165  RH  033%=      5-min Rain = 0
KPD2 111639Z 22003KT 35/16 A3002 RMK A01 T03520163  RH  033%=      5-min Rain = 0
KPD2 111640Z 21004KT 35/17 A3002 RMK A01 T03520165  RH  033%=      5-min Rain = 0
KPD2 111641Z 19004KT 35/16 A3002 RMK A01 T03520163  RH  033%=      5-min Rain = 0
KPD2 111642Z 21001KT 35/16 A3002 RMK A01 T03510164  RH  033%=      5-min Rain = 0
KPD2 111643Z 13003KT 35/16 A3002 RMK A01 T03510164  RH  033%=      5-min Rain = 0
KPD2 111644Z 14005KT 35/16 A3002 RMK A01 T03500164  RH  033%=      5-min Rain = 0
KPD2 111645Z 20008KT 35/17 A3002 RMK A01 T03500166  RH  033%=      5-min Rain = 0
KPD2 111646Z 18006KT 35/17 A3002 RMK A01 T03510165  RH  033%=      5-min Rain = 0
KPD2 111647Z 21006KT 35/17 A3002 RMK A01 T03500166  RH  033%=      5-min Rain = 0
KPD2 111648Z 20005KT 35/17 A3002 RMK A01 T03490165  RH  034%=      5-min Rain = 0
KPD2 111649Z 20006G11KT 35/17 A3002 RMK A01 T03490166  RH  034%=      5-min Rain = 0
KPD2 111650Z 21004KT 35/17 A3002 RMK A01 T03500165  RH  033%=      5-min Rain = 0
KPD2 111651Z 19004KT 35/17 A3002 RMK A01 T03520166  RH  033%=      5-min Rain = 0
KPD2 111652Z 17008KT 35/17 A3002 RMK A01 T03520166  RH  033%=      5-min Rain = 0
KPD2 111653Z 16005KT 35/17 A3002 RMK A01 T03520165  RH  033%=      5-min Rain = 0
KPD2 111654Z 17005G11KT 35/17 A3002 RMK A01 T03520166  RH  033%=      5-min Rain = 0
KPD2 111655Z 14005KT 35/17 A3002 RMK A01 T03530165  RH  033%=      5-min Rain = 0
KPD2 111656Z 18005KT 35/16 A3002 RMK A01 T03520164  RH  033%=      5-min Rain = 0
KPD2 111657Z 16004KT 35/17 A3002 RMK A01 T03500165  RH  033%=      5-min Rain = 0
KPD2 111658Z 16003KT 35/17 A3002 RMK A01 T03500166  RH  034%=      5-min Rain = 0
KPD2 111659Z 20005KT 35/17 A3002 RMK A01 T03510166  RH  033%=      5-min Rain = 0
KPD2 111700Z 21005KT 35/17 A3002 RMK A01 T03510166  RH  033%=      5-min Rain = 0
KPD2 111701Z 21003KT 35/17 A3002 RMK A01 T03500166  RH  033%=      5-min Rain = 0
KPD2 111702Z 20006KT 35/17 A3002 RMK A01 T03490166  RH  034%=      5-min Rain = 0
KPD2 111703Z 20003KT 35/17 A3002 RMK A01 T03490167  RH  034%=      5-min Rain = 0
KPD2 111704Z 21005KT 35/17 A3002 RMK A01 T03490166  RH  034%=      5-min Rain = 0
KPD2 111705Z 22005KT 35/17 A3002 RMK A01 T03490166  RH  034%=      5-min Rain = 0
KPD2 111706Z 23005KT 35/17 A3002 RMK A01 T03490168  RH  034%=      5-min Rain = 0
KPD2 111707Z 21005KT 35/17 A3002 RMK A01 T03500167  RH  034%=      5-min Rain = 0
KPD2 111708Z 21003KT 35/17 A3002 RMK A01 T03520168  RH  034%=      5-min Rain = 0
KPD2 111709Z 20003KT 36/17 A3002 RMK A01 T03560169  RH  033%=      5-min Rain = 0
KPD2 111710Z 20004KT 36/17 A3002 RMK A01 T03590168  RH  032%=      5-min Rain = 0
KPD2 111711Z 22004KT 36/17 A3002 RMK A01 T03600169  RH  032%=      5-min Rain = 0
KPD2 111712Z 20004KT 36/17 A3002 RMK A01 T03610168  RH  032%=      5-min Rain = 0
KPD2 111713Z 20001KT 36/17 A3002 RMK A01 T03620166  RH  031%=      5-min Rain = 0
KPD2 111714Z 25003KT 36/17 A3002 RMK A01 T03640168  RH  032%=      5-min Rain = 0
KPD2 111715Z 13003KT 37/17 A3001 RMK A01 T03650168  RH  031%=      5-min Rain = 0
KPD2 111716Z 16003KT 37/17 A3001 RMK A01 T03670168  RH  031%=      5-min Rain = 0
KPD2 111717Z 20001KT 37/17 A3001 RMK A01 T03690168  RH  031%=      5-min Rain = 0
KPD2 111718Z 18002KT 37/17 A3001 RMK A01 T03700169  RH  031%=      5-min Rain = 0
KPD2 111719Z 14009KT 37/17 A3001 RMK A01 T03710169  RH  031%=      5-min Rain = 0
KPD2 111720Z 15007KT 37/17 A3001 RMK A01 T03690168  RH  031%=      5-min Rain = 0
KPD2 111721Z 20006KT 37/17 A3001 RMK A01 T03670168  RH  031%=      5-min Rain = 0
KPD2 111722Z 20005KT 37/17 A3001 RMK A01 T03650167  RH  031%=      5-min Rain = 0
KPD2 111723Z 19003KT 36/17 A3001 RMK A01 T03630166  RH  031%=      5-min Rain = 0
KPD2 111724Z 14005KT 36/17 A3001 RMK A01 T03640168  RH  031%=      5-min Rain = 0
KPD2 111725Z 17006KT 37/17 A3001 RMK A01 T03670169  RH  031%=      5-min Rain = 0
KPD2 111726Z 13006KT 37/17 A3001 RMK A01 T03680168  RH  031%=      5-min Rain = 0
KPD2 111727Z 15005KT 37/17 A3001 RMK A01 T03690170  RH  031%=      5-min Rain = 0
KPD2 111728Z 13008G15KT 37/17 A30 RMK A01 T03710169  RH  031%=      5-min Rain = 0
KPD2 111729Z 13012KT 37/17 A30 RMK A01 T03710172  RH  031%=      5-min Rain = 0
KPD2 111730Z 13015G20KT 37/17 A30 RMK A01 T03710170  RH  031%=      5-min Rain = 0
KPD2 111731Z 13017G23KT 37/17 A30 RMK A01 T03700171  RH  031%=      5-min Rain = 0
KPD2 111732Z 15017G22KT 37/17 A30 RMK A01 T03660170  RH  032%=      5-min Rain = 0
KPD2 111733Z 15014KT 36/17 A3001 RMK A01 T03590170  RH  033%=      5-min Rain = 0
KPD2 111734Z 15015KT 35/17 A3001 RMK A01 T03540169  RH  033%=      5-min Rain = 0
KPD2 111735Z 15012KT 35/17 A3001 RMK A01 T03510170  RH  034%=      5-min Rain = 0
KPD2 111736Z 15012G17KT 35/17 A3001 RMK A01 T03510170  RH  034%=      5-min Rain = 0
KPD2 111737Z 16011KT 35/17 A3001 RMK A01 T03520170  RH  034%=      5-min Rain = 0
KPD2 111738Z 16010KT 35/17 A30 RMK A01 T03540171  RH  034%=      5-min Rain = 0
KPD2 111739Z 17011KT 36/17 A30 RMK A01 T03560170  RH  033%=      5-min Rain = 0
KPD2 111740Z 18010KT 36/17 A30 RMK A01 T03570170  RH  033%=      5-min Rain = 0
KPD2 111741Z 17009KT 36/17 A30 RMK A01 T03570171  RH  033%=      5-min Rain = 0
KPD2 111742Z 16009G14KT 36/17 A30 RMK A01 T03560171  RH  033%=      5-min Rain = 0
KPD2 111743Z 16010KT 36/17 A30 RMK A01 T03560171  RH  033%=      5-min Rain = 0
KPD2 111744Z 15011KT 36/17 A30 RMK A01 T03580171  RH  033%=      5-min Rain = 0
KPD2 111745Z 14008KT 36/17 A30 RMK A01 T03610172  RH  033%=      5-min Rain = 0
KPD2 111746Z 14006KT 36/17 A30 RMK A01 T03630172  RH  033%=      5-min Rain = 0
KPD2 111747Z 15006KT 37/17 A30 RMK A01 T03650173  RH  032%=      5-min Rain = 0
KPD2 111748Z 15008KT 37/17 A30 RMK A01 T03650173  RH  032%=      5-min Rain = 0
KPD2 111749Z 14004KT 36/17 A30 RMK A01 T03640172  RH  032%=      5-min Rain = 0
KPD2 111750Z 13009KT 36/17 A30 RMK A01 T03630174  RH  033%=      5-min Rain = 0
KPD2 111751Z 12010KT 37/17 A30 RMK A01 T03650174  RH  033%=      5-min Rain = 0
KPD2 111752Z 11007KT 37/18 A30 RMK A01 T03680176  RH  032%=      5-min Rain = 0
KPD2 111753Z 15007KT 37/18 A30 RMK A01 T03740176  RH  031%=      5-min Rain = 0
KPD2 111754Z 16010KT 38/18 A30 RMK A01 T03750175  RH  031%=      5-min Rain = 0
KPD2 111755Z 16012G17KT 37/17 A30 RMK A01 T03740173  RH  031%=      5-min Rain = 0
KPD2 111756Z 14010KT 37/17 A30 RMK A01 T03700173  RH  031%=      5-min Rain = 0
KPD2 111757Z 16007KT 37/17 A30 RMK A01 T03690172  RH  031%=      5-min Rain = 0
KPD2 111758Z 16009KT 37/17 A2999 RMK A01 T03690172  RH  031%=      5-min Rain = 0
KPD2 111759Z 15011KT 37/17 A2999 RMK A01 T03700173  RH  031%=      5-min Rain = 0
KPD2 111800Z 16010KT 37/17 A2999 RMK A01 T03700172  RH  031%=      5-min Rain = 0
KPD2 111801Z 16007KT 37/17 A2999 RMK A01 T03710173  RH  031%=      5-min Rain = 0
KPD2 111802Z 16010KT 37/17 A2999 RMK A01 T03730172  RH  031%=      5-min Rain = 0
KPD2 111803Z 14008G13KT 37/17 A2999 RMK A01 T03720173  RH  031%=      5-min Rain = 0
KPD2 111804Z 13012KT 37/17 A2999 RMK A01 T03740174  RH  031%=      5-min Rain = 0
KPD2 111805Z 14010KT 38/17 A2999 RMK A01 T03770172  RH  030%=      5-min Rain = 0
KPD2 111806Z 16011KT 38/17 A2999 RMK A01 T03770173  RH  030%=      5-min Rain = 0
KPD2 111807Z 15011G17KT 38/17 A2999 RMK A01 T03780173  RH  030%=      5-min Rain = 0
KPD2 111808Z 16011KT 38/17 A2999 RMK A01 T03790172  RH  030%=      5-min Rain = 0
KPD2 111809Z 17011KT 38/17 A2999 RMK A01 T03760169  RH  030%=      5-min Rain = 0
KPD2 111810Z 16007G12KT 37/17 A2999 RMK A01 T03720169  RH  030%=      5-min Rain = 0
KPD2 111811Z 16010KT 37/17 A2999 RMK A01 T03730169  RH  030%=      5-min Rain = 0
KPD2 111812Z 15009KT 37/17 A2999 RMK A01 T03730168  RH  030%=      5-min Rain = 0
KPD2 111813Z 16013KT 37/17 A2999 RMK A01 T03720169  RH  030%=      5-min Rain = 0
KPD2 111814Z 16010KT 37/17 A2999 RMK A01 T03720168  RH  030%=      5-min Rain = 0
KPD2 111815Z 18008KT 37/17 A2999 RMK A01 T03720168  RH  030%=      5-min Rain = 0
KPD2 111816Z 20006KT 37/17 A2999 RMK A01 T03710171  RH  031%=      5-min Rain = 0
KPD2 111817Z 20006KT 37/17 A2999 RMK A01 T03720172  RH  031%=      5-min Rain = 0
KPD2 111818Z 21006KT 37/17 A2999 RMK A01 T03730172  RH  031%=      5-min Rain = 0
KPD2 111819Z 14009KT 37/17 A2999 RMK A01 T03730172  RH  031%=      5-min Rain = 0
KPD2 111820Z 18008G13KT 38/17 A2999 RMK A01 T03760172  RH  030%=      5-min Rain = 0
KPD2 111821Z 16010KT 38/17 A2999 RMK A01 T03780172  RH  030%=      5-min Rain = 0
KPD2 111822Z 16013KT 38/17 A2999 RMK A01 T03770171  RH  030%=      5-min Rain = 0
KPD2 111823Z 15009KT 37/17 A2999 RMK A01 T03740169  RH  030%=      5-min Rain = 0
KPD2 111824Z 18005KT 37/17 A2999 RMK A01 T03710169  RH  030%=      5-min Rain = 0
KPD2 111825Z 15008G15KT 37/17 A2999 RMK A01 T03680170  RH  031%=      5-min Rain = 0
KPD2 111826Z 16009KT 37/17 A2999 RMK A01 T03700171  RH  031%=      5-min Rain = 0
KPD2 111827Z 15010KT 37/17 A2999 RMK A01 T03730170  RH  030%=      5-min Rain = 0
KPD2 111828Z 15005KT 37/17 A2999 RMK A01 T03720168  RH  030%=      5-min Rain = 0
KPD2 111829Z 16006KT 37/17 A2998 RMK A01 T03710169  RH  031%=      5-min Rain = 0
KPD2 111830Z 19006KT 37/17 A2998 RMK A01 T03720169  RH  030%=      5-min Rain = 0
KPD2 111831Z 21007KT 37/17 A2998 RMK A01 T03730172  RH  031%=      5-min Rain = 0
KPD2 111832Z 16005KT 38/17 A2998 RMK A01 T03790172  RH  030%=      5-min Rain = 0
KPD2 111833Z 20006KT 38/17 A2998 RMK A01 T03810170  RH  029%=      5-min Rain = 0
KPD2 111834Z 21005KT 38/17 A2998 RMK A01 T03810171  RH  029%=      5-min Rain = 0
KPD2 111835Z 21004KT 38/17 A2998 RMK A01 T03820173  RH  029%=      5-min Rain = 0
KPD2 111836Z 16006KT 38/17 A2998 RMK A01 T03840171  RH  029%=      5-min Rain = 0
KPD2 111837Z 14008G14KT 39/17 A2998 RMK A01 T03850171  RH  029%=      5-min Rain = 0
KPD2 111838Z 17010G15KT 39/17 A2998 RMK A01 T03870170  RH  028%=      5-min Rain = 0
KPD2 111839Z 18006KT 39/17 A2998 RMK A01 T03870166  RH  027%=      5-min Rain = 0
KPD2 111840Z 16005KT 38/17 A2998 RMK A01 T03830166  RH  028%=      5-min Rain = 0
KPD2 111841Z 15004KT 38/17 A2998 RMK A01 T03810167  RH  028%=      5-min Rain = 0
KPD2 111842Z 15006KT 38/17 A2998 RMK A01 T03820166  RH  028%=      5-min Rain = 0
KPD2 111843Z 14005KT 38/17 A2998 RMK A01 T03830166  RH  028%=      5-min Rain = 0
KPD2 111844Z 16004KT 38/17 A2998 RMK A01 T03840167  RH  028%=      5-min Rain = 0
KPD2 111845Z 17008KT 39/17 A2997 RMK A01 T03850167  RH  028%=      5-min Rain = 0
KPD2 111846Z 17010KT 39/17 A2998 RMK A01 T03880166  RH  027%=      5-min Rain = 0
KPD2 111847Z 17008KT 39/16 A2998 RMK A01 T03880163  RH  027%=      5-min Rain = 0
KPD2 111848Z 16010G16KT 39/16 A2998 RMK A01 T03850161  RH  027%=      5-min Rain = 0
KPD2 111849Z 15005KT 38/16 A2998 RMK A01 T03820159  RH  027%=      5-min Rain = 0
KPD2 111850Z 18006KT 38/16 A2997 RMK A01 T03810159  RH  027%=      5-min Rain = 0
KPD2 111851Z 17011KT 38/16 A2997 RMK A01 T03810161  RH  028%=      5-min Rain = 0
KPD2 111852Z 15010KT 38/16 A2997 RMK A01 T03810160  RH  027%=      5-min Rain = 0
KPD2 111853Z 17010G15KT 38/16 A2997 RMK A01 T03800160  RH  027%=      5-min Rain = 0
KPD2 111854Z 16008KT 38/16 A2997 RMK A01 T03810159  RH  027%=      5-min Rain = 0
KPD2 111855Z 17008KT 38/16 A2997 RMK A01 T03810160  RH  027%=      5-min Rain = 0
KPD2 111856Z 16004KT 38/16 A2997 RMK A01 T03810159  RH  027%=      5-min Rain = 0
KPD2 111857Z 16004KT 38/16 A2997 RMK A01 T03830162  RH  027%=      5-min Rain = 0
KPD2 111858Z 16007G12KT 39/16 A2997 RMK A01 T03850161  RH  027%=      5-min Rain = 0
KPD2 111859Z 17009KT 39/16 A2997 RMK A01 T03870159  RH  026%=      5-min Rain = 0
KPD2 111900Z 16007KT 39/16 A2997 RMK A01 T03870158  RH  026%=      5-min Rain = 0
KPD2 111901Z 15008KT 39/16 A2997 RMK A01 T03850160  RH  027%=      5-min Rain = 0
KPD2 111902Z 13006KT 39/16 A2997 RMK A01 T03860163  RH  027%=      5-min Rain = 0
KPD2 111903Z 14008G17KT 39/16 A2996 RMK A01 T03900163  RH  026%=      5-min Rain = 0
KPD2 111904Z 14014KT 39/16 A2997 RMK A01 T03920162  RH  026%=      5-min Rain = 0
KPD2 111905Z 15008KT 39/16 A2997 RMK A01 T03920160  RH  026%=      5-min Rain = 0
KPD2 111906Z 15008KT 39/16 A2997 RMK A01 T03900162  RH  026%=      5-min Rain = 0
KPD2 111907Z 15006KT 39/16 A2997 RMK A01 T03900161  RH  026%=      5-min Rain = 0
KPD2 111908Z 15008G14KT 39/16 A2996 RMK A01 T03900161  RH  026%=      5-min Rain = 0
KPD2 111909Z 24003KT 39/16 A2996 RMK A01 T03900163  RH  026%=      5-min Rain = 0
KPD2 111910Z 24004KT 39/16 A2996 RMK A01 T03910163  RH  026%=      5-min Rain = 0
KPD2 111911Z 15006KT 39/16 A2996 RMK A01 T03920162  RH  026%=      5-min Rain = 0
KPD2 111912Z 18003KT 39/16 A2996 RMK A01 T03920160  RH  026%=      5-min Rain = 0
KPD2 111913Z 15005KT 39/16 A2996 RMK A01 T03910162  RH  026%=      5-min Rain = 0
KPD2 111914Z 13008KT 39/16 A2996 RMK A01 T03910161  RH  026%=      5-min Rain = 0
KPD2 111915Z 14014KT 39/16 A2996 RMK A01 T03930161  RH  026%=      5-min Rain = 0
KPD2 111916Z 14016KT 39/16 A2996 RMK A01 T03940158  RH  025%=      5-min Rain = 0
KPD2 111917Z 15013G18KT 39/16 A2996 RMK A01 T03910158  RH  026%=      5-min Rain = 0
KPD2 111918Z 15010KT 39/16 A2996 RMK A01 T03900160  RH  026%=      5-min Rain = 0
KPD2 111919Z 14013KT 39/16 A2996 RMK A01 T03920160  RH  026%=      5-min Rain = 0
KPD2 111920Z 14009KT 39/16 A2995 RMK A01 T03940160  RH  025%=      5-min Rain = 0
KPD2 111921Z 17007KT 39/16 A2995 RMK A01 T03940160  RH  025%=      5-min Rain = 0
KPD2 111922Z 13009KT 39/16 A2995 RMK A01 T03940161  RH  025%=      5-min Rain = 0
KPD2 111923Z 14013G18KT 40/16 A2995 RMK A01 T03960161  RH  025%=      5-min Rain = 0
KPD2 111924Z 15010G15KT 40/16 A2995 RMK A01 T03950159  RH  025%=      5-min Rain = 0
KPD2 111925Z 17009KT 39/16 A2995 RMK A01 T03920159  RH  026%=      5-min Rain = 0
KPD2 111926Z 15007KT 39/16 A2995 RMK A01 T03890159  RH  026%=      5-min Rain = 0
KPD2 111927Z 15007KT 39/16 A2995 RMK A01 T03880159  RH  026%=      5-min Rain = 0
KPD2 111928Z 16006KT 39/16 A2995 RMK A01 T03870158  RH  026%=      5-min Rain = 0
KPD2 111929Z 17006KT 39/16 A2995 RMK A01 T03860159  RH  026%=      5-min Rain = 0
KPD2 111930Z 18011G17KT 39/16 A2995 RMK A01 T03890161  RH  026%=      5-min Rain = 0
KPD2 111931Z 15010KT 39/16 A2995 RMK A01 T03920160  RH  026%=      5-min Rain = 0
KPD2 111932Z 15012KT 39/16 A2995 RMK A01 T03930160  RH  026%=      5-min Rain = 0
KPD2 111933Z 16004KT 39/16 A2995 RMK A01 T03930160  RH  025%=      5-min Rain = 0
KPD2 111934Z 16008G13KT 39/16 A2995 RMK A01 T03920161  RH  026%=      5-min Rain = 0
KPD2 111935Z 17009KT 39/16 A2995 RMK A01 T03910161  RH  026%=      5-min Rain = 0
KPD2 111936Z 16010KT 39/16 A2995 RMK A01 T03890160  RH  026%=      5-min Rain = 0
KPD2 111937Z 16010KT 39/16 A2995 RMK A01 T03850159  RH  026%=      5-min Rain = 0
KPD2 111938Z 17005KT 38/16 A2995 RMK A01 T03820158  RH  027%=      5-min Rain = 0
KPD2 111939Z 15005KT 38/16 A2995 RMK A01 T03800159  RH  027%=      5-min Rain = 0
KPD2 111940Z 16007KT 38/16 A2995 RMK A01 T03820160  RH  027%=      5-min Rain = 0
KPD2 111941Z 14009G15KT 39/16 A2995 RMK A01 T03870161  RH  027%=      5-min Rain = 0
KPD2 111942Z 15015G21KT 39/16 A2994 RMK A01 T03920161  RH  026%=      5-min Rain = 0
KPD2 111943Z 15013G18KT 39/16 A2994 RMK A01 T03920159  RH  025%=      5-min Rain = 0
KPD2 111944Z 14013KT 39/16 A2994 RMK A01 T03890159  RH  026%=      5-min Rain = 0
KPD2 111945Z 15014KT 39/16 A2994 RMK A01 T03860159  RH  026%=      5-min Rain = 0
KPD2 111946Z 15011G16KT 38/16 A2994 RMK A01 T03840159  RH  027%=      5-min Rain = 0
KPD2 111947Z 14010G16KT 38/16 A2994 RMK A01 T03830159  RH  027%=      5-min Rain = 0
KPD2 111948Z 13009G14KT 38/16 A2994 RMK A01 T03830157  RH  026%=      5-min Rain = 0
KPD2 111949Z 15008KT 38/16 A2994 RMK A01 T03820158  RH  027%=      5-min Rain = 0
KPD2 111950Z 13004KT 38/16 A2994 RMK A01 T03830159  RH  027%=      5-min Rain = 0
KPD2 111951Z 15007KT 39/16 A2994 RMK A01 T03850159  RH  026%=      5-min Rain = 0
KPD2 111952Z 14009KT 39/16 A2994 RMK A01 T03880159  RH  026%=      5-min Rain = 0
KPD2 111953Z 14011KT 39/16 A2994 RMK A01 T03890158  RH  026%=      5-min Rain = 0
KPD2 111954Z 14012G18KT 39/16 A2993 RMK A01 T03880157  RH  026%=      5-min Rain = 0
KPD2 111955Z 15014G21KT 39/16 A2993 RMK A01 T03860155  RH  026%=      5-min Rain = 0
KPD2 111956Z 15012KT 38/16 A2994 RMK A01 T03840155  RH  026%=      5-min Rain = 0
KPD2 111957Z 15012KT 38/15 A2994 RMK A01 T03820153  RH  026%=      5-min Rain = 0
KPD2 111958Z 15009KT 38/15 A2994 RMK A01 T03810153  RH  026%=      5-min Rain = 0
KPD2 111959Z 14007KT 38/15 A2994 RMK A01 T03800153  RH  026%=      5-min Rain = 0
KPD2 112000Z 13004KT 38/15 A2994 RMK A01 T03800154  RH  026%=      5-min Rain = 0
KPD2 112001Z 15004KT 38/16 A2994 RMK A01 T03820155  RH  026%=      5-min Rain = 0
KPD2 112002Z 19008KT 39/15 A2994 RMK A01 T03850153  RH  026%=      5-min Rain = 0
KPD2 112003Z 19009KT 39/16 A2994 RMK A01 T03860155  RH  026%=      5-min Rain = 0
KPD2 112004Z 18008KT 39/15 A2994 RMK A01 T03870154  RH  025%=      5-min Rain = 0
KPD2 112005Z 17007KT 39/15 A2994 RMK A01 T03870153  RH  025%=      5-min Rain = 0
KPD2 112006Z 12004KT 39/15 A2993 RMK A01 T03870154  RH  025%=      5-min Rain = 0
KPD2 112007Z 11005KT 39/15 A2993 RMK A01 T03870154  RH  025%=      5-min Rain = 0
KPD2 112008Z 15009G14KT 39/16 A2993 RMK A01 T03900155  RH  025%=      5-min Rain = 0
KPD2 112009Z 13008KT 39/16 A2993 RMK A01 T03930155  RH  025%=      5-min Rain = 0
KPD2 112010Z 13006KT 40/16 A2993 RMK A01 T03970156  RH  024%=      5-min Rain = 0
KPD2 112011Z 14007KT 40/16 A2993 RMK A01 T04010155  RH  024%=      5-min Rain = 0
KPD2 112012Z 14007KT 40/15 A2993 RMK A01 T04010153  RH  023%=      5-min Rain = 0
KPD2 112013Z 18005KT 40/15 A2993 RMK A01 T03980151  RH  023%=      5-min Rain = 0
KPD2 112014Z 12005KT 40/15 A2993 RMK A01 T03950152  RH  024%=      5-min Rain = 0
KPD2 112015Z 14002KT 40/15 A2993 RMK A01 T03950152  RH  024%=      5-min Rain = 0
KPD2 112020Z 16004KT 41/15 A2992 RMK A01 T04060152  RH  023%=      5-min Rain = 0
KPD2 112021Z 17002KT 40/15 A2992 RMK A01 T04030153  RH  023%=      5-min Rain = 0
KPD2 112022Z 21004KT 40/15 A2992 RMK A01 T04020153  RH  023%=      5-min Rain = 0
KPD2 112023Z 20005KT 40/15 A2992 RMK A01 T04000152  RH  023%=      5-min Rain = 0
KPD2 112024Z 18005KT 40/16 A2992 RMK A01 T03980155  RH  024%=      5-min Rain = 0
KPD2 112025Z 21007G14KT 40/15 A2992 RMK A01 T03990154  RH  024%=      5-min Rain = 0
KPD2 112026Z 22003KT 40/15 A2992 RMK A01 T04010154  RH  024%=      5-min Rain = 0
KPD2 112027Z 16010G17KT 40/15 A2992 RMK A01 T04000153  RH  024%=      5-min Rain = 0
KPD2 112028Z 16009KT 40/15 A2992 RMK A01 T04000153  RH  024%=      5-min Rain = 0
KPD2 112029Z 16011KT 40/15 A2992 RMK A01 T03990153  RH  024%=      5-min Rain = 0
KPD2 112030Z 15012KT 40/15 A2992 RMK A01 T03980153  RH  024%=      5-min Rain = 0
KPD2 112031Z 13010G15KT 40/15 A2992 RMK A01 T03990153  RH  024%=      5-min Rain = 0
KPD2 112032Z 13011KT 40/16 A2992 RMK A01 T04000155  RH  024%=      5-min Rain = 0
KPD2 112033Z 15011KT 40/15 A2992 RMK A01 T04010153  RH  023%=      5-min Rain = 0
KPD2 112034Z 17011KT 40/15 A2992 RMK A01 T03980151  RH  024%=      5-min Rain = 0
KPD2 112035Z 17009KT 39/15 A2992 RMK A01 T03920151  RH  024%=      5-min Rain = 0
KPD2 112036Z 16009KT 39/15 A2992 RMK A01 T03890152  RH  025%=      5-min Rain = 0
KPD2 112037Z 17012KT 39/15 A2992 RMK A01 T03880151  RH  025%=      5-min Rain = 0
KPD2 112038Z 15012KT 39/15 A2992 RMK A01 T03880151  RH  025%=      5-min Rain = 0
KPD2 112039Z 16009KT 39/15 A2992 RMK A01 T03900152  RH  025%=      5-min Rain = 0
KPD2 112040Z 17010KT 39/15 A2992 RMK A01 T03930151  RH  024%=      5-min Rain = 0
KPD2 112041Z 16009KT 40/15 A2992 RMK A01 T03950151  RH  024%=      5-min Rain = 0
KPD2 112042Z 14007KT 40/15 A2992 RMK A01 T03960151  RH  024%=      5-min Rain = 0
KPD2 112043Z 11008KT 40/16 A2992 RMK A01 T03980156  RH  024%=      5-min Rain = 0
KPD2 112044Z 09004KT 40/15 A2992 RMK A01 T04020154  RH  023%=      5-min Rain = 0
KPD2 112045Z 11007KT 40/16 A2992 RMK A01 T04030156  RH  024%=      5-min Rain = 0
KPD2 112046Z 13007KT 41/15 A2992 RMK A01 T04050154  RH  023%=      5-min Rain = 0
KPD2 112047Z 14011KT 40/15 A2992 RMK A01 T04040154  RH  023%=      5-min Rain = 0
KPD2 112048Z 14012KT 40/15 A2992 RMK A01 T04020154  RH  023%=      5-min Rain = 0
KPD2 112049Z 14010KT 40/16 A2992 RMK A01 T04000156  RH  024%=      5-min Rain = 0
KPD2 112050Z 15007KT 40/15 A2992 RMK A01 T04010154  RH  024%=      5-min Rain = 0
KPD2 112051Z 17005KT 40/16 A2992 RMK A01 T03990155  RH  024%=      5-min Rain = 0
KPD2 112052Z 15006KT 40/16 A2992 RMK A01 T03980155  RH  024%=      5-min Rain = 0
KPD2 112053Z 17008G14KT 40/16 A2992 RMK A01 T03980156  RH  024%=      5-min Rain = 0
KPD2 112054Z 16007G14KT 40/16 A2991 RMK A01 T03990156  RH  024%=      5-min Rain = 0
KPD2 112055Z 14010KT 40/16 A2991 RMK A01 T04000156  RH  024%=      5-min Rain = 0
KPD2 112056Z 15013KT 40/16 A2991 RMK A01 T04000157  RH  024%=      5-min Rain = 0
KPD2 112057Z 18008KT 40/16 A2992 RMK A01 T04010158  RH  024%=      5-min Rain = 0
KPD2 112058Z 16008G13KT 40/16 A2992 RMK A01 T03990157  RH  024%=      5-min Rain = 0
KPD2 112059Z 16011KT 40/16 A2992 RMK A01 T03960156  RH  024%=      5-min Rain = 0
KPD2 112100Z 16010KT 39/15 A2991 RMK A01 T03940154  RH  025%=      5-min Rain = 0
KPD2 112101Z 17010KT 39/16 A2992 RMK A01 T03910155  RH  025%=      5-min Rain = 0
KPD2 112102Z 18008KT 39/16 A2992 RMK A01 T03910155  RH  025%=      5-min Rain = 0
KPD2 112103Z 16007KT 39/16 A2992 RMK A01 T03910156  RH  025%=      5-min Rain = 0
KPD2 112104Z 16009KT 39/16 A2992 RMK A01 T03930156  RH  025%=      5-min Rain = 0
KPD2 112105Z 17007KT 39/15 A2992 RMK A01 T03940154  RH  024%=      5-min Rain = 0
KPD2 112106Z 15009KT 39/16 A2992 RMK A01 T03920157  RH  025%=      5-min Rain = 0
KPD2 112107Z 14005KT 39/15 A2992 RMK A01 T03880154  RH  025%=      5-min Rain = 0
KPD2 112108Z 15005KT 39/15 A2991 RMK A01 T03860154  RH  025%=      5-min Rain = 0
KPD2 112109Z 13004KT 39/16 A2991 RMK A01 T03850155  RH  026%=      5-min Rain = 0
KPD2 112110Z 14006KT 39/16 A2991 RMK A01 T03850155  RH  026%=      5-min Rain = 0
KPD2 112111Z 18008KT 39/15 A2991 RMK A01 T03850154  RH  026%=      5-min Rain = 0
KPD2 112112Z 16007KT 38/15 A2991 RMK A01 T03840154  RH  026%=      5-min Rain = 0
KPD2 112113Z 16011KT 38/15 A2991 RMK A01 T03840154  RH  026%=      5-min Rain = 0
KPD2 112114Z 16008KT 39/15 A2991 RMK A01 T03860154  RH  026%=      5-min Rain = 0
KPD2 112115Z 20006KT 39/16 A2991 RMK A01 T03880156  RH  026%=      5-min Rain = 0
KPD2 112116Z 16008KT 39/16 A2991 RMK A01 T03920158  RH  025%=      5-min Rain = 0
KPD2 112117Z 17007G13KT 40/16 A2991 RMK A01 T03950157  RH  025%=      5-min Rain = 0
KPD2 112118Z 15010KT 40/16 A2991 RMK A01 T03960158  RH  025%=      5-min Rain = 0
KPD2 112119Z 16010KT 40/16 A2991 RMK A01 T03980156  RH  024%=      5-min Rain = 0
KPD2 112120Z 17011KT 40/16 A2991 RMK A01 T03990157  RH  024%=      5-min Rain = 0
KPD2 112121Z 16011G16KT 40/16 A2991 RMK A01 T04000158  RH  024%=      5-min Rain = 0
KPD2 112122Z 15007KT 40/16 A2991 RMK A01 T04000158  RH  024%=      5-min Rain = 0
KPD2 112123Z 15009G14KT 40/16 A2991 RMK A01 T04000159  RH  024%=      5-min Rain = 0
KPD2 112124Z 15008G13KT 40/16 A2991 RMK A01 T03980157  RH  024%=      5-min Rain = 0
KPD2 112125Z 18006KT 39/16 A2991 RMK A01 T03930156  RH  025%=      5-min Rain = 0
KPD2 112126Z 20007KT 39/16 A2991 RMK A01 T03910158  RH  026%=      5-min Rain = 0
KPD2 112127Z 21006G11KT 39/16 A2991 RMK A01 T03900155  RH  025%=      5-min Rain = 0
KPD2 112128Z 20011KT 39/15 A2991 RMK A01 T03900154  RH  025%=      5-min Rain = 0
KPD2 112129Z 20010KT 39/16 A2991 RMK A01 T03900156  RH  025%=      5-min Rain = 0
KPD2 112130Z 18005KT 39/15 A2991 RMK A01 T03910154  RH  025%=      5-min Rain = 0
KPD2 112131Z 21004KT 39/15 A2991 RMK A01 T03890154  RH  025%=      5-min Rain = 0
KPD2 112132Z 19006KT 39/16 A2991 RMK A01 T03860156  RH  026%=      5-min Rain = 0
KPD2 112133Z 18008KT 39/16 A2991 RMK A01 T03850156  RH  026%=      5-min Rain = 0
KPD2 112134Z 14005KT 38/16 A2991 RMK A01 T03830155  RH  026%=      5-min Rain = 0
KPD2 112135Z 18003KT 38/16 A2991 RMK A01 T03820155  RH  026%=      5-min Rain = 0
KPD2 112136Z 22007KT 38/16 A2991 RMK A01 T03810156  RH  027%=      5-min Rain = 0
KPD2 112137Z 24007KT 38/16 A299 RMK A01 T03840159  RH  027%=      5-min Rain = 0
KPD2 112138Z 18008KT 39/16 A299 RMK A01 T03870159  RH  026%=      5-min Rain = 0
KPD2 112139Z 16008G15KT 39/16 A299 RMK A01 T03890157  RH  026%=      5-min Rain = 0
KPD2 112140Z 22007KT 39/16 A299 RMK A01 T03920160  RH  026%=      5-min Rain = 0
KPD2 112141Z 22010KT 39/16 A299 RMK A01 T03920157  RH  025%=      5-min Rain = 0
KPD2 112142Z 20009G14KT 39/16 A299 RMK A01 T03890156  RH  026%=      5-min Rain = 0
KPD2 112143Z 17009KT 39/16 A299 RMK A01 T03860157  RH  026%=      5-min Rain = 0
KPD2 112144Z 16011KT 39/16 A299 RMK A01 T03850158  RH  026%=      5-min Rain = 0
KPD2 112145Z 19007KT 39/16 A299 RMK A01 T03850158  RH  026%=      5-min Rain = 0
KPD2 112146Z 15011KT 39/16 A299 RMK A01 T03860159  RH  026%=      5-min Rain = 0
KPD2 112147Z 13013KT 39/16 A299 RMK A01 T03900159  RH  026%=      5-min Rain = 0
KPD2 112148Z 14012G18KT 39/16 A299 RMK A01 T03910159  RH  026%=      5-min Rain = 0
KPD2 112149Z 13014KT 39/16 A299 RMK A01 T03930160  RH  025%=      5-min Rain = 0
KPD2 112150Z 13012KT 40/16 A299 RMK A01 T03960160  RH  025%=      5-min Rain = 0
KPD2 112151Z 13012G17KT 40/16 A299 RMK A01 T03970160  RH  025%=      5-min Rain = 0
KPD2 112152Z 14012KT 40/16 A299 RMK A01 T03950158  RH  025%=      5-min Rain = 0
KPD2 112153Z 14014G20KT 39/16 A299 RMK A01 T03910156  RH  025%=      5-min Rain = 0
KPD2 112154Z 14009G14KT 39/16 A299 RMK A01 T03870155  RH  026%=      5-min Rain = 0
KPD2 112155Z 15008KT 39/16 A299 RMK A01 T03850155  RH  026%=      5-min Rain = 0
KPD2 112156Z 17012KT 38/16 A299 RMK A01 T03840156  RH  026%=      5-min Rain = 0
KPD2 112157Z 14012KT 38/16 A299 RMK A01 T03840155  RH  026%=      5-min Rain = 0
KPD2 112158Z 15007KT 38/16 A299 RMK A01 T03840156  RH  026%=      5-min Rain = 0
KPD2 112159Z 21005KT 38/16 A299 RMK A01 T03840157  RH  026%=      5-min Rain = 0
KPD2 112200Z 21007KT 39/16 A299 RMK A01 T03850159  RH  026%=      5-min Rain = 0
KPD2 112201Z 20009G14KT 39/16 A299 RMK A01 T03880158  RH  026%=      5-min Rain = 0
KPD2 112202Z 22008KT 39/16 A299 RMK A01 T03890160  RH  026%=      5-min Rain = 0
KPD2 112203Z 19006KT 39/16 A299 RMK A01 T03900160  RH  026%=      5-min Rain = 0
KPD2 112204Z 15006KT 39/16 A299 RMK A01 T03900160  RH  026%=      5-min Rain = 0
KPD2 112205Z 16010KT 39/16 A299 RMK A01 T03940163  RH  026%=      5-min Rain = 0
KPD2 112206Z 16007KT 40/16 A2989 RMK A01 T03960160  RH  025%=      5-min Rain = 0
KPD2 112207Z 14010G15KT 40/16 A299 RMK A01 T03960161  RH  025%=      5-min Rain = 0
KPD2 112208Z 14010G17KT 40/16 A2989 RMK A01 T03960162  RH  026%=      5-min Rain = 0
KPD2 112209Z 16016KT 40/16 A299 RMK A01 T03960161  RH  025%=      5-min Rain = 0
KPD2 112210Z 19011G16KT 40/16 A299 RMK A01 T03950158  RH  025%=      5-min Rain = 0
KPD2 112211Z 15011KT 39/16 A2989 RMK A01 T03900159  RH  026%=      5-min Rain = 0
KPD2 112212Z 16011KT 39/16 A2989 RMK A01 T03900161  RH  026%=      5-min Rain = 0
KPD2 112213Z 14014KT 39/16 A2989 RMK A01 T03900161  RH  026%=      5-min Rain = 0
KPD2 112214Z 16015KT 39/16 A2989 RMK A01 T03910161  RH  026%=      5-min Rain = 0
KPD2 112215Z 15012KT 39/16 A2989 RMK A01 T03910161  RH  026%=      5-min Rain = 0
KPD2 112216Z 13013G19KT 39/16 A2989 RMK A01 T03910161  RH  026%=      5-min Rain = 0
KPD2 112217Z 13013G19KT 39/16 A2989 RMK A01 T03940161  RH  026%=      5-min Rain = 0
KPD2 112218Z 15009KT 40/16 A2989 RMK A01 T03960160  RH  025%=      5-min Rain = 0
KPD2 112219Z 15007KT 40/16 A2989 RMK A01 T03950160  RH  025%=      5-min Rain = 0
KPD2 112220Z 20006KT 40/16 A2989 RMK A01 T03950160  RH  025%=      5-min Rain = 0
KPD2 112221Z 17007KT 40/16 A2989 RMK A01 T03950158  RH  025%=      5-min Rain = 0
KPD2 112222Z 19006KT 39/16 A2989 RMK A01 T03940161  RH  026%=      5-min Rain = 0
KPD2 112223Z 15009G14KT 40/16 A2989 RMK A01 T03960161  RH  025%=      5-min Rain = 0
KPD2 112224Z 16008G14KT 40/16 A2989 RMK A01 T03980160  RH  025%=      5-min Rain = 0
KPD2 112225Z 15008G13KT 40/16 A2989 RMK A01 T03990160  RH  025%=      5-min Rain = 0
KPD2 112226Z 15008G13KT 40/16 A2989 RMK A01 T03990161  RH  025%=      5-min Rain = 0
KPD2 112227Z 13009KT 40/16 A2989 RMK A01 T04010162  RH  025%=      5-min Rain = 0
KPD2 112228Z 15011G16KT 40/16 A2989 RMK A01 T04030161  RH  024%=      5-min Rain = 0
KPD2 112229Z 16012KT 40/16 A2989 RMK A01 T04010162  RH  025%=      5-min Rain = 0
KPD2 112230Z 17011KT 40/16 A2989 RMK A01 T03990159  RH  025%=      5-min Rain = 0
KPD2 112231Z 16005KT 40/16 A2989 RMK A01 T03960157  RH  025%=      5-min Rain = 0
KPD2 112232Z 14004KT 39/16 A2989 RMK A01 T03940157  RH  025%=      5-min Rain = 0
KPD2 112233Z 17004KT 39/16 A2989 RMK A01 T03940157  RH  025%=      5-min Rain = 0
KPD2 112234Z 18006KT 40/16 A2989 RMK A01 T03950160  RH  025%=      5-min Rain = 0
KPD2 112235Z 15004KT 40/16 A2989 RMK A01 T03970158  RH  025%=      5-min Rain = 0
KPD2 112236Z 14005KT 40/16 A2989 RMK A01 T03990159  RH  025%=      5-min Rain = 0
KPD2 112237Z 14005KT 40/16 A2989 RMK A01 T03990160  RH  025%=      5-min Rain = 0
KPD2 112238Z 16005KT 40/16 A2989 RMK A01 T04010159  RH  024%=      5-min Rain = 0
KPD2 112239Z 16007G14KT 40/16 A2989 RMK A01 T04020158  RH  024%=      5-min Rain = 0
KPD2 112240Z 15010KT 40/16 A2989 RMK A01 T04000159  RH  024%=      5-min Rain = 0
KPD2 112241Z 15011G16KT 40/16 A2989 RMK A01 T03990159  RH  025%=      5-min Rain = 0
KPD2 112242Z 15011G17KT 40/16 A2989 RMK A01 T03980158  RH  025%=      5-min Rain = 0
KPD2 112243Z 16012KT 40/16 A2989 RMK A01 T03960158  RH  025%=      5-min Rain = 0
KPD2 112244Z 15010KT 39/16 A2989 RMK A01 T03940157  RH  025%=      5-min Rain = 0
KPD2 112245Z 16013KT 39/16 A2989 RMK A01 T03920158  RH  025%=      5-min Rain = 0
KPD2 112246Z 15011KT 39/16 A2989 RMK A01 T03920158  RH  025%=      5-min Rain = 0
KPD2 112247Z 14009KT 39/16 A2988 RMK A01 T03920157  RH  025%=      5-min Rain = 0
KPD2 112248Z 15010KT 39/16 A2989 RMK A01 T03920158  RH  025%=      5-min Rain = 0
KPD2 112249Z 15009KT 39/16 A2989 RMK A01 T03930159  RH  025%=      5-min Rain = 0
KPD2 112250Z 13012G17KT 39/16 A2988 RMK A01 T03940159  RH  025%=      5-min Rain = 0
KPD2 112251Z 14014KT 40/16 A2988 RMK A01 T03950158  RH  025%=      5-min Rain = 0
KPD2 112252Z 14010KT 39/16 A2988 RMK A01 T03930158  RH  025%=      5-min Rain = 0
KPD2 112253Z 14009G14KT 39/16 A2988 RMK A01 T03930160  RH  025%=      5-min Rain = 0
KPD2 112254Z 15010G15KT 39/16 A2988 RMK A01 T03940158  RH  025%=      5-min Rain = 0
KPD2 112255Z 16009KT 39/16 A2988 RMK A01 T03920157  RH  025%=      5-min Rain = 0
KPD2 112256Z 15007G12KT 39/16 A2988 RMK A01 T03910157  RH  025%=      5-min Rain = 0
KPD2 112257Z 14011KT 39/16 A2988 RMK A01 T03910158  RH  026%=      5-min Rain = 0
KPD2 112258Z 15011KT 39/16 A2988 RMK A01 T03910157  RH  025%=      5-min Rain = 0
KPD2 112259Z 14011KT 39/16 A2988 RMK A01 T03910157  RH  025%=      5-min Rain = 0
KPD2 112300Z 16011KT 39/16 A2988 RMK A01 T03910157  RH  025%=      5-min Rain = 0
KPD2 112301Z 16010G15KT 39/16 A2988 RMK A01 T03900157  RH  025%=      5-min Rain = 0
KPD2 112302Z 14009G14KT 39/16 A2988 RMK A01 T03900156  RH  025%=      5-min Rain = 0
KPD2 112303Z 15009KT 39/16 A2988 RMK A01 T03910158  RH  025%=      5-min Rain = 0
KPD2 112304Z 16009KT 39/16 A2988 RMK A01 T03920158  RH  025%=      5-min Rain = 0
KPD2 112305Z 16009KT 39/16 A2988 RMK A01 T03930158  RH  025%=      5-min Rain = 0
KPD2 112306Z 15009G15KT 39/16 A2988 RMK A01 T03920157  RH  025%=      5-min Rain = 0
KPD2 112307Z 16011KT 39/16 A2988 RMK A01 T03930157  RH  025%=      5-min Rain = 0
KPD2 112308Z 16009KT 39/16 A2988 RMK A01 T03930155  RH  025%=      5-min Rain = 0
KPD2 112309Z 15010KT 39/16 A2988 RMK A01 T03920156  RH  025%=      5-min Rain = 0
KPD2 112310Z 15009KT 39/16 A2988 RMK A01 T03900155  RH  025%=      5-min Rain = 0
KPD2 112311Z 14009KT 39/16 A2988 RMK A01 T03890156  RH  025%=      5-min Rain = 0
KPD2 112312Z 15009KT 39/16 A2988 RMK A01 T03890155  RH  025%=      5-min Rain = 0
KPD2 112313Z 16007KT 39/16 A2988 RMK A01 T03890156  RH  025%=      5-min Rain = 0
KPD2 112314Z 16011KT 39/16 A2988 RMK A01 T03910155  RH  025%=      5-min Rain = 0
KPD2 112315Z 13008KT 39/16 A2988 RMK A01 T03910156  RH  025%=      5-min Rain = 0
KPD2 112316Z 15008KT 39/16 A2988 RMK A01 T03910157  RH  025%=      5-min Rain = 0
KPD2 112317Z 16006KT 39/16 A2988 RMK A01 T03920157  RH  025%=      5-min Rain = 0
KPD2 112318Z 15009G14KT 39/16 A2988 RMK A01 T03920158  RH  025%=      5-min Rain = 0
KPD2 112319Z 16009KT 39/16 A2988 RMK A01 T03920157  RH  025%=      5-min Rain = 0
KPD2 112320Z 17008KT 39/16 A2988 RMK A01 T03900157  RH  025%=      5-min Rain = 0
KPD2 112321Z 18008KT 39/16 A2988 RMK A01 T03890157  RH  026%=      5-min Rain = 0
KPD2 112322Z 16006KT 39/16 A2988 RMK A01 T03880157  RH  026%=      5-min Rain = 0
KPD2 112323Z 16005KT 39/16 A2988 RMK A01 T03860155  RH  026%=      5-min Rain = 0
KPD2 112324Z 15005KT 38/16 A2988 RMK A01 T03840156  RH  026%=      5-min Rain = 0
KPD2 112325Z 16007KT 38/16 A2988 RMK A01 T03820156  RH  026%=      5-min Rain = 0
KPD2 112326Z 14011KT 38/16 A2988 RMK A01 T03820155  RH  026%=      5-min Rain = 0
KPD2 112327Z 14010G15KT 38/16 A2988 RMK A01 T03830155  RH  026%=      5-min Rain = 0
KPD2 112328Z 14010KT 39/15 A2988 RMK A01 T03850154  RH  026%=      5-min Rain = 0
KPD2 112329Z 13010G15KT 39/16 A2987 RMK A01 T03860155  RH  026%=      5-min Rain = 0
KPD2 112330Z 15012KT 39/16 A2987 RMK A01 T03870155  RH  026%=      5-min Rain = 0
KPD2 112331Z 17011KT 39/15 A2988 RMK A01 T03870154  RH  025%=      5-min Rain = 0
KPD2 112332Z 17007KT 39/15 A2988 RMK A01 T03850154  RH  026%=      5-min Rain = 0
KPD2 112333Z 16009KT 39/16 A2988 RMK A01 T03850155  RH  026%=      5-min Rain = 0
KPD2 112334Z 13012G17KT 39/15 A2988 RMK A01 T03850154  RH  026%=      5-min Rain = 0
KPD2 112335Z 15012KT 39/15 A2988 RMK A01 T03860154  RH  025%=      5-min Rain = 0
KPD2 112336Z 16009G14KT 39/15 A2988 RMK A01 T03860154  RH  026%=      5-min Rain = 0
KPD2 112337Z 15010KT 39/15 A2988 RMK A01 T03860154  RH  026%=      5-min Rain = 0
KPD2 112338Z 16009KT 39/15 A2987 RMK A01 T03860154  RH  026%=      5-min Rain = 0
KPD2 112339Z 15010KT 39/15 A2987 RMK A01 T03860153  RH  025%=      5-min Rain = 0
KPD2 112340Z 14010KT 39/16 A2987 RMK A01 T03860155  RH  026%=      5-min Rain = 0
KPD2 112341Z 15011G16KT 39/16 A2987 RMK A01 T03860156  RH  026%=      5-min Rain = 0
KPD2 112342Z 16007KT 39/16 A2987 RMK A01 T03860157  RH  026%=      5-min Rain = 0
KPD2 112343Z 18006KT 39/16 A2987 RMK A01 T03860158  RH  026%=      5-min Rain = 0
KPD2 112344Z 14009KT 39/16 A2987 RMK A01 T03850159  RH  026%=      5-min Rain = 0
KPD2 112345Z 15010KT 39/16 A2987 RMK A01 T03850157  RH  026%=      5-min Rain = 0
KPD2 112346Z 17008KT 38/16 A2987 RMK A01 T03830157  RH  026%=      5-min Rain = 0
KPD2 112347Z 15009G14KT 38/16 A2987 RMK A01 T03820157  RH  027%=      5-min Rain = 0
KPD2 112348Z 15009KT 38/16 A2987 RMK A01 T03830157  RH  027%=      5-min Rain = 0
KPD2 112349Z 15008KT 38/16 A2987 RMK A01 T03840156  RH  026%=      5-min Rain = 0
KPD2 112350Z 17008KT 38/16 A2987 RMK A01 T03840157  RH  026%=      5-min Rain = 0
KPD2 112351Z 16009KT 38/16 A2987 RMK A01 T03840157  RH  026%=      5-min Rain = 0
KPD2 112352Z 18009KT 38/16 A2988 RMK A01 T03830156  RH  026%=      5-min Rain = 0
KPD2 112353Z 18006G11KT 38/16 A2988 RMK A01 T03820156  RH  026%=      5-min Rain = 0
KPD2 112354Z 18009KT 38/16 A2988 RMK A01 T03810156  RH  026%=      5-min Rain = 0
KPD2 112355Z 16009KT 38/16 A2988 RMK A01 T03810155  RH  026%=      5-min Rain = 0
KPD2 112356Z 16010KT 38/15 A2988 RMK A01 T03800154  RH  026%=      5-min Rain = 0
KPD2 112357Z 16009KT 38/15 A2988 RMK A01 T03800154  RH  026%=      5-min Rain = 0
KPD2 112358Z 16009KT 38/15 A2988 RMK A01 T03810154  RH  026%=      5-min Rain = 0
KPD2 112359Z 16009KT 38/15 A2988 RMK A01 T03810154  RH  026%=      5-min Rain = 0
KPD2 120000Z 16008KT 38/15 A2988 RMK A01 T03810153  RH  026%=      5-min Rain = 0
KPD2 120001Z 16008KT 38/15 A2988 RMK A01 T03810154  RH  026%=      5-min Rain = 0
KPD2 120002Z 16008KT 38/15 A2988 RMK A01 T03810153  RH  026%=      5-min Rain = 0
KPD2 120003Z 15008KT 38/15 A2988 RMK A01 T03810153  RH  026%=      5-min Rain = 0
KPD2 120004Z 14006KT 38/15 A2988 RMK A01 T03820153  RH  026%=      5-min Rain = 0
KPD2 120005Z 16011G16KT 38/16 A2988 RMK A01 T03830155  RH  026%=      5-min Rain = 0
KPD2 120006Z 16011G16KT 38/15 A2988 RMK A01 T03830154  RH  026%=      5-min Rain = 0
KPD2 120007Z 14010KT 38/16 A2988 RMK A01 T03820155  RH  026%=      5-min Rain = 0
KPD2 120008Z 15008KT 38/16 A2988 RMK A01 T03820156  RH  026%=      5-min Rain = 0
KPD2 120009Z 15008KT 38/16 A2988 RMK A01 T03810155  RH  026%=      5-min Rain = 0
KPD2 120010Z 16009KT 38/16 A2988 RMK A01 T03820157  RH  027%=      5-min Rain = 0
KPD2 120011Z 18009KT 38/16 A2988 RMK A01 T03820155  RH  026%=      5-min Rain = 0
KPD2 120012Z 17009KT 38/16 A2988 RMK A01 T03800155  RH  027%=      5-min Rain = 0
KPD2 120013Z 15011KT 38/16 A2988 RMK A01 T03790156  RH  027%=      5-min Rain = 0
KPD2 120014Z 15012KT 38/16 A2988 RMK A01 T03790155  RH  027%=      5-min Rain = 0
KPD2 120015Z 16008KT 38/16 A2988 RMK A01 T03790155  RH  027%=      5-min Rain = 0
KPD2 120016Z 16004KT 38/16 A2988 RMK A01 T03790155  RH  027%=      5-min Rain = 0
KPD2 120017Z 14007KT 38/16 A2988 RMK A01 T03790155  RH  027%=      5-min Rain = 0
KPD2 120018Z 14011G16KT 38/16 A2988 RMK A01 T03790155  RH  027%=      5-min Rain = 0
KPD2 120019Z 15014KT 38/15 A2988 RMK A01 T03790154  RH  026%=      5-min Rain = 0
KPD2 120020Z 16010KT 38/15 A2988 RMK A01 T03780154  RH  027%=      5-min Rain = 0
KPD2 120021Z 15009KT 38/15 A2989 RMK A01 T03780154  RH  027%=      5-min Rain = 0
KPD2 120022Z 16010KT 38/15 A2989 RMK A01 T03770154  RH  027%=      5-min Rain = 0
KPD2 120023Z 14007KT 38/15 A2989 RMK A01 T03770154  RH  027%=      5-min Rain = 0
KPD2 120024Z 15009KT 38/15 A2989 RMK A01 T03770154  RH  027%=      5-min Rain = 0
KPD2 120025Z 16007KT 38/15 A2989 RMK A01 T03760154  RH  027%=      5-min Rain = 0
KPD2 120026Z 14010KT 38/15 A2989 RMK A01 T03760154  RH  027%=      5-min Rain = 0
KPD2 120027Z 16011KT 38/15 A2989 RMK A01 T03770154  RH  027%=      5-min Rain = 0
KPD2 120028Z 20014G20KT 38/15 A2989 RMK A01 T03760154  RH  027%=      5-min Rain = 0
KPD2 120029Z 15011KT 38/15 A2989 RMK A01 T03750154  RH  027%=      5-min Rain = 0
KPD2 120030Z 16013KT 37/15 A2989 RMK A01 T03740154  RH  027%=      5-min Rain = 0
KPD2 120031Z 15011KT 37/15 A2989 RMK A01 T03740153  RH  027%=      5-min Rain = 0
KPD2 120032Z 16006KT 37/15 A2989 RMK A01 T03740152  RH  027%=      5-min Rain = 0
KPD2 120033Z 15006KT 37/15 A2989 RMK A01 T03730153  RH  027%=      5-min Rain = 0
KPD2 120034Z 16009KT 37/15 A2989 RMK A01 T03730153  RH  027%=      5-min Rain = 0
KPD2 120035Z 14010KT 37/15 A2989 RMK A01 T03730153  RH  027%=      5-min Rain = 0
KPD2 120036Z 15010KT 37/15 A2989 RMK A01 T03730153  RH  027%=      5-min Rain = 0
KPD2 120037Z 14008KT 37/15 A2989 RMK A01 T03730153  RH  027%=      5-min Rain = 0
KPD2 120038Z 15008KT 37/15 A2989 RMK A01 T03740154  RH  027%=      5-min Rain = 0
KPD2 120039Z 15009KT 37/15 A2989 RMK A01 T03740153  RH  027%=      5-min Rain = 0
KPD2 120040Z 16008KT 37/15 A2989 RMK A01 T03740153  RH  027%=      5-min Rain = 0
KPD2 120041Z 16008KT 37/15 A2989 RMK A01 T03730153  RH  027%=      5-min Rain = 0
KPD2 120042Z 14007KT 37/15 A2989 RMK A01 T03730153  RH  027%=      5-min Rain = 0
KPD2 120043Z 14006KT 37/15 A2989 RMK A01 T03730153  RH  027%=      5-min Rain = 0
KPD2 120044Z 15006KT 37/15 A2989 RMK A01 T03720153  RH  027%=      5-min Rain = 0
KPD2 120045Z 15009KT 37/15 A2989 RMK A01 T03720153  RH  027%=      5-min Rain = 0
KPD2 120046Z 14010KT 37/15 A2989 RMK A01 T03720153  RH  027%=      5-min Rain = 0
KPD2 120047Z 14009KT 37/15 A2989 RMK A01 T03720153  RH  027%=      5-min Rain = 0
KPD2 120048Z 15005G10KT 37/15 A2989 RMK A01 T03710153  RH  027%=      5-min Rain = 0
KPD2 120049Z 16011KT 37/15 A2989 RMK A01 T03710153  RH  028%=      5-min Rain = 0
KPD2 120050Z 17008KT 37/15 A2989 RMK A01 T03700152  RH  028%=      5-min Rain = 0
KPD2 120051Z 14004KT 37/15 A2989 RMK A01 T03690153  RH  028%=      5-min Rain = 0
KPD2 120052Z 14008KT 37/15 A2989 RMK A01 T03680153  RH  028%=      5-min Rain = 0
KPD2 120053Z 15008KT 37/15 A2989 RMK A01 T03680154  RH  028%=      5-min Rain = 0
KPD2 120054Z 17010KT 37/15 A2989 RMK A01 T03670154  RH  028%=      5-min Rain = 0
KPD2 120055Z 14006KT 37/15 A299 RMK A01 T03670154  RH  028%=      5-min Rain = 0
KPD2 120056Z 15008KT 37/15 A299 RMK A01 T03660154  RH  028%=      5-min Rain = 0
KPD2 120057Z 16005KT 37/15 A299 RMK A01 T03660154  RH  029%=      5-min Rain = 0
KPD2 120058Z 14006KT 37/15 A299 RMK A01 T03650154  RH  029%=      5-min Rain = 0
KPD2 120059Z 13005KT 37/15 A299 RMK A01 T03650154  RH  029%=      5-min Rain = 0
KPD2 120100Z 16003KT 37/16 A299 RMK A01 T03650155  RH  029%=      5-min Rain = 0
KPD2 120101Z 20004KT 36/16 A299 RMK A01 T03640156  RH  029%=      5-min Rain = 0
KPD2 120102Z 21003KT 36/16 A299 RMK A01 T03630155  RH  029%=      5-min Rain = 0
KPD2 120103Z 19003KT 36/15 A299 RMK A01 T03630154  RH  029%=      5-min Rain = 0
KPD2 120104Z 16006KT 36/16 A299 RMK A01 T03620155  RH  029%=      5-min Rain = 0
KPD2 120105Z 16007KT 36/16 A299 RMK A01 T03620155  RH  029%=      5-min Rain = 0
KPD2 120106Z 17006KT 36/15 A299 RMK A01 T03620154  RH  029%=      5-min Rain = 0
KPD2 120107Z 15006KT 36/15 A299 RMK A01 T03620154  RH  029%=      5-min Rain = 0
KPD2 120108Z 16010KT 36/16 A299 RMK A01 T03620155  RH  029%=      5-min Rain = 0
KPD2 120109Z 17009KT 36/15 A299 RMK A01 T03620154  RH  029%=      5-min Rain = 0
KPD2 120110Z 18007KT 36/15 A299 RMK A01 T03620154  RH  029%=      5-min Rain = 0
KPD2 120111Z 16007KT 36/15 A299 RMK A01 T03620154  RH  029%=      5-min Rain = 0
KPD2 120112Z 17004KT 36/15 A299 RMK A01 T03620153  RH  029%=      5-min Rain = 0
KPD2 120113Z 18004KT 36/15 A299 RMK A01 T03620153  RH  029%=      5-min Rain = 0
KPD2 120114Z 16005KT 36/15 A299 RMK A01 T03620154  RH  029%=      5-min Rain = 0
KPD2 120115Z 16008KT 36/15 A299 RMK A01 T03610154  RH  029%=      5-min Rain = 0
KPD2 120116Z 19008KT 36/15 A299 RMK A01 T03600152  RH  029%=      5-min Rain = 0
KPD2 120117Z 19009KT 36/15 A299 RMK A01 T03600151  RH  029%=      5-min Rain = 0
KPD2 120118Z 15005KT 36/15 A299 RMK A01 T03610151  RH  029%=      5-min Rain = 0
KPD2 120119Z 15004KT 36/15 A299 RMK A01 T03610152  RH  029%=      5-min Rain = 0
KPD2 120120Z 17005KT 36/15 A299 RMK A01 T03610153  RH  029%=      5-min Rain = 0
KPD2 120121Z 14003KT 36/15 A299 RMK A01 T03600151  RH  029%=      5-min Rain = 0
KPD2 120122Z 13007G13KT 36/15 A299 RMK A01 T03590152  RH  029%=      5-min Rain = 0
KPD2 120123Z 15012KT 36/15 A2991 RMK A01 T03590151  RH  029%=      5-min Rain = 0
KPD2 120124Z 17006KT 36/15 A2991 RMK A01 T03580149  RH  029%=      5-min Rain = 0
KPD2 120125Z 15004KT 36/15 A2991 RMK A01 T03590149  RH  029%=      5-min Rain = 0
KPD2 120126Z 13009KT 36/15 A2991 RMK A01 T03590149  RH  029%=      5-min Rain = 0
KPD2 120127Z 16005G10KT 36/15 A2991 RMK A01 T03590149  RH  029%=      5-min Rain = 0
KPD2 120128Z 12007G14KT 36/15 A2991 RMK A01 T03590148  RH  028%=      5-min Rain = 0
KPD2 120129Z 13006G12KT 36/15 A2991 RMK A01 T03590149  RH  029%=      5-min Rain = 0
KPD2 120130Z 14005KT 36/15 A2991 RMK A01 T03590148  RH  029%=      5-min Rain = 0
KPD2 120131Z 13006KT 36/15 A2991 RMK A01 T03580149  RH  029%=      5-min Rain = 0
KPD2 120132Z 16006KT 36/15 A2991 RMK A01 T03570149  RH  029%=      5-min Rain = 0
KPD2 120133Z 19008KT 36/15 A2991 RMK A01 T03570148  RH  029%=      5-min Rain = 0
KPD2 120134Z 15007KT 36/15 A2991 RMK A01 T03570148  RH  029%=      5-min Rain = 0
KPD2 120135Z 15005KT 36/15 A2991 RMK A01 T03560147  RH  029%=      5-min Rain = 0
KPD2 120136Z 16006KT 36/15 A2991 RMK A01 T03560146  RH  028%=      5-min Rain = 0
KPD2 120137Z 14010KT 36/15 A2991 RMK A01 T03570145  RH  028%=      5-min Rain = 0
KPD2 120138Z 18007KT 36/15 A2991 RMK A01 T03570145  RH  028%=      5-min Rain = 0
KPD2 120139Z 18007KT 36/15 A2991 RMK A01 T03570145  RH  028%=      5-min Rain = 0
KPD2 120140Z 20007KT 36/15 A2991 RMK A01 T03570145  RH  028%=      5-min Rain = 0
KPD2 120141Z 15008G14KT 36/15 A2992 RMK A01 T03560145  RH  028%=      5-min Rain = 0
KPD2 120142Z 12007KT 36/15 A2992 RMK A01 T03560145  RH  028%=      5-min Rain = 0
KPD2 120143Z 13007KT 36/15 A2991 RMK A01 T03560145  RH  028%=      5-min Rain = 0
KPD2 120144Z 13006KT 36/14 A2992 RMK A01 T03550144  RH  028%=      5-min Rain = 0
KPD2 120145Z 16008KT 36/15 A2992 RMK A01 T03560145  RH  028%=      5-min Rain = 0
KPD2 120146Z 18009G14KT 36/14 A2992 RMK A01 T03550144  RH  028%=      5-min Rain = 0
KPD2 120147Z 18005KT 36/14 A2992 RMK A01 T03550144  RH  028%=      5-min Rain = 0
KPD2 120148Z 15006KT 36/14 A2992 RMK A01 T03560143  RH  028%=      5-min Rain = 0
KPD2 120149Z 19006KT 36/14 A2992 RMK A01 T03560144  RH  028%=      5-min Rain = 0
KPD2 120150Z 17005KT 36/14 A2992 RMK A01 T03560143  RH  028%=      5-min Rain = 0
KPD2 120151Z 14002KT 36/14 A2992 RMK A01 T03550143  RH  028%=      5-min Rain = 0
KPD2 120152Z 14004KT 36/14 A2992 RMK A01 T03560144  RH  028%=      5-min Rain = 0
KPD2 120153Z 14007G13KT 36/14 A2992 RMK A01 T03550144  RH  028%=      5-min Rain = 0
KPD2 120154Z 17009KT 35/14 A2992 RMK A01 T03540144  RH  028%=      5-min Rain = 0
KPD2 120155Z 16006KT 35/14 A2992 RMK A01 T03540143  RH  028%=      5-min Rain = 0
KPD2 120156Z 17005KT 35/14 A2992 RMK A01 T03540143  RH  028%=      5-min Rain = 0
KPD2 120157Z 17005KT 36/14 A2992 RMK A01 T03550143  RH  028%=      5-min Rain = 0
KPD2 120158Z 17006KT 35/14 A2992 RMK A01 T03540143  RH  028%=      5-min Rain = 0
KPD2 120159Z 19006KT 35/14 A2992 RMK A01 T03540142  RH  028%=      5-min Rain = 0
KPD2 120200Z 15005KT 36/14 A2992 RMK A01 T03550142  RH  028%=      5-min Rain = 0
KPD2 120201Z 13006KT 36/14 A2992 RMK A01 T03550143  RH  028%=      5-min Rain = 0
KPD2 120202Z 12003KT 35/14 A2992 RMK A01 T03540144  RH  029%=      5-min Rain = 0
KPD2 120203Z 14006KT 35/14 A2992 RMK A01 T03530142  RH  028%=      5-min Rain = 0
KPD2 120204Z 14005KT 35/14 A2992 RMK A01 T03530142  RH  028%=      5-min Rain = 0
KPD2 120205Z 16005KT 35/14 A2992 RMK A01 T03530142  RH  028%=      5-min Rain = 0
KPD2 120206Z 16008KT 35/14 A2993 RMK A01 T03530142  RH  028%=      5-min Rain = 0
KPD2 120207Z 14006KT 35/14 A2992 RMK A01 T03530142  RH  028%=      5-min Rain = 0
KPD2 120208Z 14004KT 35/14 A2992 RMK A01 T03540143  RH  028%=      5-min Rain = 0
KPD2 120209Z 16007KT 35/14 A2993 RMK A01 T03530143  RH  028%=      5-min Rain = 0
KPD2 120210Z 19005KT 35/14 A2993 RMK A01 T03520142  RH  028%=      5-min Rain = 0
KPD2 120211Z 15003KT 35/14 A2993 RMK A01 T03530142  RH  028%=      5-min Rain = 0
KPD2 120212Z 14005KT 35/14 A2993 RMK A01 T03530143  RH  029%=      5-min Rain = 0
KPD2 120213Z 18004KT 35/14 A2993 RMK A01 T03510143  RH  029%=      5-min Rain = 0
KPD2 120214Z 20003KT 35/14 A2993 RMK A01 T03500143  RH  029%=      5-min Rain = 0
KPD2 120215Z 18004KT 35/14 A2993 RMK A01 T03500144  RH  029%=      5-min Rain = 0
KPD2 120216Z 15005KT 35/14 A2993 RMK A01 T03490143  RH  029%=      5-min Rain = 0
KPD2 120217Z 17005KT 35/14 A2993 RMK A01 T03490143  RH  029%=      5-min Rain = 0
KPD2 120218Z 19004KT 35/14 A2993 RMK A01 T03490142  RH  029%=      5-min Rain = 0
KPD2 120219Z 21003KT 35/14 A2993 RMK A01 T03490142  RH  029%=      5-min Rain = 0
KPD2 120220Z 21003KT 35/14 A2993 RMK A01 T03490143  RH  029%=      5-min Rain = 0
KPD2 120221Z 21006KT 35/14 A2993 RMK A01 T03490142  RH  029%=      5-min Rain = 0
KPD2 120222Z 16007KT 35/14 A2993 RMK A01 T03480141  RH  029%=      5-min Rain = 0
KPD2 120223Z 15005KT 35/14 A2993 RMK A01 T03490142  RH  029%=      5-min Rain = 0
KPD2 120224Z 12005KT 35/14 A2993 RMK A01 T03490141  RH  029%=      5-min Rain = 0
KPD2 120225Z 19002KT 35/14 A2993 RMK A01 T03490141  RH  029%=      5-min Rain = 0
KPD2 120226Z 21004KT 35/14 A2993 RMK A01 T03480142  RH  029%=      5-min Rain = 0
KPD2 120227Z 19005KT 35/14 A2993 RMK A01 T03480142  RH  029%=      5-min Rain = 0
KPD2 120228Z 16004KT 35/14 A2994 RMK A01 T03480141  RH  029%=      5-min Rain = 0
KPD2 120229Z 15004KT 35/14 A2994 RMK A01 T03480142  RH  029%=      5-min Rain = 0
KPD2 120230Z 16003KT 35/14 A2994 RMK A01 T03480141  RH  029%=      5-min Rain = 0
KPD2 120231Z 18004KT 35/14 A2994 RMK A01 T03480141  RH  029%=      5-min Rain = 0
KPD2 120232Z 16004KT 35/14 A2994 RMK A01 T03470141  RH  029%=      5-min Rain = 0
KPD2 120233Z 16004KT 35/14 A2994 RMK A01 T03480141  RH  029%=      5-min Rain = 0
KPD2 120234Z 15004G9KT 35/14 A2994 RMK A01 T03480139  RH  029%=      5-min Rain = 0
KPD2 120235Z 18006KT 35/14 A2995 RMK A01 T03480140  RH  029%=      5-min Rain = 0
KPD2 120236Z 21008KT 35/14 A2995 RMK A01 T03490140  RH  029%=      5-min Rain = 0
KPD2 120237Z 27012G22KT 35/14 A2997 RMK A01 T03480142  RH  029%=      5-min Rain = 0
KPD2 120238Z 29017G25KT 34/15 A2998 RMK A01 T03430150  RH  032%=      5-min Rain = 0
KPD2 120239Z 28016KT 33/15 A2998 RMK A01 T03320152  RH  034%=      5-min Rain = 0
KPD2 120240Z 28011G21KT 32/15 A2998 RMK A01 T03240153  RH  036%=      5-min Rain = 0
KPD2 120241Z 29010G15KT 32/15 A2998 RMK A01 T03200153  RH  037%=      5-min Rain = 0
KPD2 120242Z 30014G21KT 32/15 A2998 RMK A01 T03180154  RH  037%=      5-min Rain = 0
KPD2 120243Z 29010KT 32/16 A2998 RMK A01 T03160155  RH  038%=      5-min Rain = 0
KPD2 120244Z 29007KT 31/16 A2998 RMK A01 T03130155  RH  038%=      5-min Rain = 0
KPD2 120245Z 29007G14KT 31/16 A2998 RMK A01 T03120156  RH  039%=      5-min Rain = 0
KPD2 120246Z 27016G21KT 31/16 A2999 RMK A01 T03110157  RH  039%=      5-min Rain = 0
KPD2 120247Z 31011KT 31/16 A2999 RMK A01 T03090157  RH  040%=      5-min Rain = 0
KPD2 120248Z 31013G19KT 31/16 A2998 RMK A01 T03070157  RH  040%=      5-min Rain = 0
KPD2 120249Z 30011KT 31/16 A2998 RMK A01 T03050157  RH  041%=      5-min Rain = 0
KPD2 120250Z 29011KT 30/16 A2999 RMK A01 T03030157  RH  041%=      5-min Rain = 0
KPD2 120251Z 29014G19KT 30/16 A2999 RMK A01 T03020156  RH  041%=      5-min Rain = 0
KPD2 120252Z 29010G16KT 30/16 A2999 RMK A01 T03010156  RH  042%=      5-min Rain = 0
KPD2 120253Z 28011G20KT 30/16 A2999 RMK A01 T03000156  RH  042%=      5-min Rain = 0
KPD2 120254Z 28010G15KT 30/16 A2999 RMK A01 T02990157  RH  042%=      5-min Rain = 0
KPD2 120255Z 29010G18KT 30/16 A30 RMK A01 T02970157  RH  043%=      5-min Rain = 0
KPD2 120256Z 28015G20KT 30/16 A2999 RMK A01 T02960157  RH  043%=      5-min Rain = 0
KPD2 120257Z 29011G16KT 29/16 A30 RMK A01 T02940157  RH  044%=      5-min Rain = 0
KPD2 120258Z 29008G15KT 29/16 A30 RMK A01 T02920158  RH  044%=      5-min Rain = 0
KPD2 120259Z 29010G18KT 29/16 A30 RMK A01 T02910158  RH  045%=      5-min Rain = 0
KPD2 120300Z 30007G12KT 29/16 A30 RMK A01 T02900159  RH  045%=      5-min Rain = 0
KPD2 120301Z 31013KT 29/16 A30 RMK A01 T02890160  RH  046%=      5-min Rain = 0
KPD2 120302Z 29012G19KT 29/16 A30 RMK A01 T02870160  RH  046%=      5-min Rain = 0
KPD2 120303Z 29011G19KT 29/16 A30 RMK A01 T02850160  RH  047%=      5-min Rain = 0
KPD2 120304Z 30012G19KT 28/16 A30 RMK A01 T02840160  RH  047%=      5-min Rain = 0
KPD2 120305Z 29011G16KT 28/16 A30 RMK A01 T02830161  RH  047%=      5-min Rain = 0
KPD2 120306Z 30011G18KT 28/16 A30 RMK A01 T02820161  RH  048%=      5-min Rain = 0
KPD2 120307Z 28013G19KT 28/16 A3001 RMK A01 T02810161  RH  048%=      5-min Rain = 0
KPD2 120308Z 29012G20KT 28/16 A3001 RMK A01 T02810162  RH  048%=      5-min Rain = 0
KPD2 120309Z 29009G14KT 28/16 A3001 RMK A01 T02790162  RH  049%=      5-min Rain = 0
KPD2 120310Z 29010G15KT 28/16 A3001 RMK A01 T02780162  RH  049%=      5-min Rain = 0
KPD2 120311Z 30012G17KT 28/16 A3001 RMK A01 T02780163  RH  050%=      5-min Rain = 0
KPD2 120312Z 28011G16KT 28/16 A3001 RMK A01 T02770164  RH  050%=      5-min Rain = 0
KPD2 120313Z 31014KT 28/16 A3001 RMK A01 T02760164  RH  050%=      5-min Rain = 0
KPD2 120314Z 29012KT 28/16 A3001 RMK A01 T02750164  RH  051%=      5-min Rain = 0
KPD2 120315Z 29009KT 27/16 A3001 RMK A01 T02740164  RH  051%=      5-min Rain = 0
KPD2 120316Z 30007KT 27/16 A3001 RMK A01 T02740164  RH  051%=      5-min Rain = 0
KPD2 120317Z 30011KT 27/16 A3001 RMK A01 T02730164  RH  051%=      5-min Rain = 0
KPD2 120318Z 30008KT 27/16 A3001 RMK A01 T02730164  RH  052%=      5-min Rain = 0
KPD2 120319Z 32010KT 27/17 A3001 RMK A01 T02730165  RH  052%=      5-min Rain = 0
KPD2 120320Z 31009G15KT 27/17 A3001 RMK A01 T02720165  RH  052%=      5-min Rain = 0
KPD2 120321Z 30009G16KT 27/17 A3001 RMK A01 T02720165  RH  052%=      5-min Rain = 0
KPD2 120322Z 31011KT 27/17 A3001 RMK A01 T02710165  RH  052%=      5-min Rain = 0
KPD2 120323Z 31011G17KT 27/17 A3001 RMK A01 T02710165  RH  052%=      5-min Rain = 0
KPD2 120324Z 31013G19KT 27/17 A3001 RMK A01 T02710165  RH  052%=      5-min Rain = 0
KPD2 120325Z 30010G15KT 27/17 A3001 RMK A01 T02710165  RH  052%=      5-min Rain = 0
KPD2 120326Z 30007KT 27/17 A3001 RMK A01 T02710165  RH  052%=      5-min Rain = 0
KPD2 120327Z 31009KT 27/17 A3001 RMK A01 T02710165  RH  052%=      5-min Rain = 0
KPD2 120328Z 32012G19KT 27/17 A3001 RMK A01 T02710165  RH  052%=      5-min Rain = 0
KPD2 120329Z 31012KT 27/17 A3001 RMK A01 T02700165  RH  052%=      5-min Rain = 0
KPD2 120330Z 32010KT 27/16 A3001 RMK A01 T02700164  RH  052%=      5-min Rain = 0
KPD2 120331Z 32010KT 27/16 A3001 RMK A01 T02700164  RH  052%=      5-min Rain = 0
KPD2 120332Z 30013KT 27/16 A3001 RMK A01 T02700164  RH  052%=      5-min Rain = 0
KPD2 120333Z 32008KT 27/16 A3001 RMK A01 T02700164  RH  052%=      5-min Rain = 0
KPD2 120334Z 32009KT 27/16 A3001 RMK A01 T02700164  RH  052%=      5-min Rain = 0
KPD2 120335Z 31011KT 27/16 A3001 RMK A01 T02700164  RH  052%=      5-min Rain = 0
KPD2 120336Z 31012KT 27/16 A3001 RMK A01 T02700164  RH  052%=      5-min Rain = 0
KPD2 120337Z 32011KT 27/16 A3001 RMK A01 T02700163  RH  052%=      5-min Rain = 0
KPD2 120338Z 32011KT 27/16 A3001 RMK A01 T02700163  RH  052%=      5-min Rain = 0
KPD2 120339Z 31011KT 27/16 A3001 RMK A01 T02700163  RH  052%=      5-min Rain = 0
KPD2 120340Z 31009KT 27/16 A3001 RMK A01 T02700162  RH  051%=      5-min Rain = 0
KPD2 120341Z 30011G16KT 27/16 A3001 RMK A01 T02710161  RH  051%=      5-min Rain = 0
KPD2 120342Z 31010G18KT 27/16 A3001 RMK A01 T02710161  RH  051%=      5-min Rain = 0
KPD2 120343Z 30009G14KT 27/16 A3001 RMK A01 T02710161  RH  051%=      5-min Rain = 0
KPD2 120344Z 32006KT 27/16 A3001 RMK A01 T02710161  RH  051%=      5-min Rain = 0
KPD2 120345Z 32012KT 27/16 A3001 RMK A01 T02710161  RH  051%=      5-min Rain = 0
KPD2 120346Z 31007KT 27/16 A3001 RMK A01 T02710157  RH  050%=      5-min Rain = 0
KPD2 120347Z 31007KT 27/16 A3001 RMK A01 T02710158  RH  050%=      5-min Rain = 0
KPD2 120348Z 33006KT 27/16 A3001 RMK A01 T02720158  RH  050%=      5-min Rain = 0
KPD2 120349Z 32009G15KT 27/16 A3001 RMK A01 T02710158  RH  050%=      5-min Rain = 0
KPD2 120350Z 29009G14KT 27/16 A3001 RMK A01 T02710157  RH  050%=      5-min Rain = 0
KPD2 120351Z 32007KT 27/16 A3001 RMK A01 T02710156  RH  049%=      5-min Rain = 0
KPD2 120352Z 32007G13KT 27/16 A3001 RMK A01 T02720156  RH  049%=      5-min Rain = 0
KPD2 120353Z 32009KT 27/16 A3001 RMK A01 T02710156  RH  049%=      5-min Rain = 0
KPD2 120354Z 32007KT 27/16 A3001 RMK A01 T02720155  RH  049%=      5-min Rain = 0
KPD2 120355Z 32008KT 27/16 A3001 RMK A01 T02720155  RH  049%=      5-min Rain = 0
KPD2 120356Z 32011KT 27/16 A3001 RMK A01 T02720155  RH  049%=      5-min Rain = 0
KPD2 120357Z 31011G16KT 27/15 A3001 RMK A01 T02720153  RH  048%=      5-min Rain = 0
KPD2 120358Z 32008KT 27/15 A3001 RMK A01 T02720153  RH  048%=      5-min Rain = 0
KPD2 120359Z 32008KT 27/15 A3001 RMK A01 T02720153  RH  048%=      5-min Rain = 0
KPD2 120400Z 31007KT 27/15 A3001 RMK A01 T02720153  RH  048%=      5-min Rain = 0
KPD2 120401Z 32006KT 27/15 A3001 RMK A01 T02720153  RH  048%=      5-min Rain = 0
KPD2 120402Z 33010G15KT 27/15 A3001 RMK A01 T02720153  RH  048%=      5-min Rain = 0
KPD2 120403Z 33011KT 27/15 A3001 RMK A01 T02710153  RH  048%=      5-min Rain = 0
KPD2 120404Z 34010KT 27/15 A3001 RMK A01 T02710152  RH  048%=      5-min Rain = 0
KPD2 120405Z 34011KT 27/15 A30 RMK A01 T02710151  RH  048%=      5-min Rain = 0
KPD2 120406Z 32010KT 27/15 A3001 RMK A01 T02710150  RH  048%=      5-min Rain = 0
KPD2 120407Z 33009KT 27/15 A3001 RMK A01 T02710151  RH  048%=      5-min Rain = 0
KPD2 120408Z 32008KT 27/15 A3001 RMK A01 T02710151  RH  048%=      5-min Rain = 0
KPD2 120409Z 31009KT 27/15 A3001 RMK A01 T02710151  RH  048%=      5-min Rain = 0
KPD2 120410Z 33010KT 27/15 A3001 RMK A01 T02710151  RH  048%=      5-min Rain = 0
KPD2 120411Z 33009G14KT 27/15 A30 RMK A01 T02710150  RH  047%=      5-min Rain = 0
KPD2 120412Z 33008G13KT 27/15 A3001 RMK A01 T02710150  RH  047%=      5-min Rain = 0
KPD2 120413Z 33008G13KT 27/15 A3001 RMK A01 T02710149  RH  047%=      5-min Rain = 0
KPD2 120414Z 34009G14KT 27/15 A3001 RMK A01 T02710149  RH  047%=      5-min Rain = 0
KPD2 120415Z 33008KT 27/15 A3001 RMK A01 T02710149  RH  047%=      5-min Rain = 0
KPD2 120416Z 33010G15KT 27/15 A3001 RMK A01 T02710149  RH  047%=      5-min Rain = 0
KPD2 120417Z 34010KT 27/15 A3001 RMK A01 T02710150  RH  047%=      5-min Rain = 0
KPD2 120418Z 33010KT 27/15 A3001 RMK A01 T02710150  RH  047%=      5-min Rain = 0
KPD2 120419Z 34007KT 27/15 A30 RMK A01 T02710150  RH  047%=      5-min Rain = 0
KPD2 120420Z 34011KT 27/15 A30 RMK A01 T02710151  RH  048%=      5-min Rain = 0
KPD2 120421Z 34010G15KT 27/15 A30 RMK A01 T02700151  RH  048%=      5-min Rain = 0
KPD2 120422Z 34013KT 27/15 A30 RMK A01 T02700150  RH  048%=      5-min Rain = 0
KPD2 120423Z 34010KT 27/15 A30 RMK A01 T02690150  RH  048%=      5-min Rain = 0
KPD2 120424Z 34009KT 27/15 A30 RMK A01 T02680150  RH  048%=      5-min Rain = 0
KPD2 120425Z 34010KT 27/15 A30 RMK A01 T02680150  RH  048%=      5-min Rain = 0
KPD2 120426Z 33009KT 27/15 A30 RMK A01 T02670150  RH  048%=      5-min Rain = 0
KPD2 120427Z 34009KT 27/15 A30 RMK A01 T02670150  RH  049%=      5-min Rain = 0
KPD2 120428Z 33009KT 27/15 A30 RMK A01 T02670150  RH  049%=      5-min Rain = 0
KPD2 120429Z 33010KT 27/15 A30 RMK A01 T02670150  RH  049%=      5-min Rain = 0
KPD2 120430Z 32007KT 27/15 A2999 RMK A01 T02670150  RH  049%=      5-min Rain = 0
KPD2 120431Z 33009KT 27/15 A2999 RMK A01 T02670149  RH  048%=      5-min Rain = 0
KPD2 120432Z 33007KT 27/15 A2999 RMK A01 T02680148  RH  048%=      5-min Rain = 0
KPD2 120433Z 32008KT 27/15 A2999 RMK A01 T02680148  RH  048%=      5-min Rain = 0
KPD2 120434Z 33009KT 27/15 A2999 RMK A01 T02680147  RH  047%=      5-min Rain = 0
KPD2 120435Z 33005KT 27/15 A2999 RMK A01 T02680147  RH  047%=      5-min Rain = 0
KPD2 120436Z 34008KT 27/15 A2999 RMK A01 T02680148  RH  047%=      5-min Rain = 0
KPD2 120437Z 34008KT 27/15 A2999 RMK A01 T02680148  RH  048%=      5-min Rain = 0
KPD2 120438Z 34007KT 27/15 A30 RMK A01 T02680148  RH  048%=      5-min Rain = 0
KPD2 120439Z 34005KT 27/15 A30 RMK A01 T02670149  RH  048%=      5-min Rain = 0
KPD2 120440Z 34005KT 27/15 A30 RMK A01 T02670149  RH  048%=      5-min Rain = 0
KPD2 120441Z 34006KT 27/15 A30 RMK A01 T02660149  RH  048%=      5-min Rain = 0
KPD2 120442Z 34005KT 27/15 A30 RMK A01 T02660150  RH  049%=      5-min Rain = 0
KPD2 120443Z 36006KT 27/15 A30 RMK A01 T02650151  RH  049%=      5-min Rain = 0
KPD2 120444Z 35007KT 26/15 A30 RMK A01 T02640153  RH  051%=      5-min Rain = 0
KPD2 120445Z 34007KT 26/16 A30 RMK A01 T02630155  RH  052%=      5-min Rain = 0
KPD2 120446Z 34005KT 26/16 A30 RMK A01 T02620156  RH  052%=      5-min Rain = 0
KPD2 120447Z 34006KT 26/16 A30 RMK A01 T02610156  RH  052%=      5-min Rain = 0
KPD2 120448Z 33004KT 26/16 A30 RMK A01 T02600157  RH  053%=      5-min Rain = 0
KPD2 120449Z 32003KT 26/16 A30 RMK A01 T02600157  RH  053%=      5-min Rain = 0
KPD2 120450Z 34003KT 26/16 A30 RMK A01 T02600157  RH  053%=      5-min Rain = 0
KPD2 120451Z 33002KT 26/16 A30 RMK A01 T02600157  RH  053%=      5-min Rain = 0
KPD2 120452Z 32003KT 26/16 A30 RMK A01 T02600158  RH  053%=      5-min Rain = 0
KPD2 120453Z 29001KT 26/16 A30 RMK A01 T02590158  RH  054%=      5-min Rain = 0
KPD2 120454Z 23001KT 26/16 A30 RMK A01 T02590158  RH  054%=      5-min Rain = 0
KPD2 120455Z 00000KT 26/16 A2999 RMK A01 T02590158  RH  054%=      5-min Rain = 0
KPD2 120456Z 00000KT 26/16 A2999 RMK A01 T02580158  RH  054%=      5-min Rain = 0
KPD2 120457Z 36001KT 26/16 A2999 RMK A01 T02580157  RH  054%=      5-min Rain = 0
KPD2 120458Z 35001KT 26/16 A2999 RMK A01 T02570157  RH  054%=      5-min Rain = 0
KPD2 120459Z 36003KT 26/16 A2999 RMK A01 T02570157  RH  054%=      5-min Rain = 0

Page generated in 0.1201 seconds.